<?xml version="1.0" encoding="UTF-8" standalone="no" ?>
<gpx xmlns="http://www.topografix.com/GPX/1/1" xmlns:xsi="http://www.w3.org/2001/XMLSchema-instance" xsi:schemaLocation="http://www.topografix.com/GPX/1/1 http://www.topografix.com/GPX/1/1/gpx.xsd" version="1.1" creator="VisuGPX - https://www.visugpx.com">
  <metadata>
    <name>Le Moulin-Roquealric-Aubignan-Sarrians-Le Moulin</name>
  </metadata>
  <trk>
    <name><![CDATA[Le Moulin-Roquealric-Aubignan-Sarrians-Le Moulin]]></name>
    <trkseg>
      <trkpt lat="44.13988" lon="5.00023">
        <ele>165.752635</ele>
        <time>2020-10-26T12:20:40.105Z</time>
      </trkpt>
      <trkpt lat="44.13965" lon="5.00038">
        <ele>165.752635</ele>
        <time>2020-10-26T12:20:46.970Z</time>
      </trkpt>
      <trkpt lat="44.1396" lon="5.00041">
        <ele>165.752635</ele>
        <time>2020-10-26T12:20:48.027Z</time>
      </trkpt>
      <trkpt lat="44.13952" lon="5.00045">
        <ele>165.752635</ele>
        <time>2020-10-26T12:20:50.865Z</time>
      </trkpt>
      <trkpt lat="44.13934" lon="5.00075">
        <ele>165.752635</ele>
        <time>2020-10-26T12:20:57.394Z</time>
      </trkpt>
      <trkpt lat="44.13882" lon="5.00123">
        <ele>165.65564</ele>
        <time>2020-10-26T12:21:14.683Z</time>
      </trkpt>
      <trkpt lat="44.1379" lon="5.00236">
        <ele>165.356871</ele>
        <time>2020-10-26T12:21:46.989Z</time>
      </trkpt>
      <trkpt lat="44.13728" lon="5.003">
        <ele>162.501317</ele>
        <time>2020-10-26T12:22:03.387Z</time>
      </trkpt>
      <trkpt lat="44.13724" lon="5.00299">
        <ele>162.292134</ele>
        <time>2020-10-26T12:22:04.306Z</time>
      </trkpt>
      <trkpt lat="44.13735" lon="5.00226">
        <ele>159.741625</ele>
        <time>2020-10-26T12:22:14.654Z</time>
      </trkpt>
      <trkpt lat="44.13782" lon="4.99925">
        <ele>145.699598</ele>
        <time>2020-10-26T12:22:54.140Z</time>
      </trkpt>
      <trkpt lat="44.13808" lon="4.99831">
        <ele>142.776592</ele>
        <time>2020-10-26T12:23:07.791Z</time>
      </trkpt>
      <trkpt lat="44.13805" lon="4.99829">
        <ele>142.684884</ele>
        <time>2020-10-26T12:23:08.401Z</time>
      </trkpt>
      <trkpt lat="44.13793" lon="4.99833">
        <ele>142.344505</ele>
        <time>2020-10-26T12:23:10.818Z</time>
      </trkpt>
      <trkpt lat="44.13643" lon="4.99968">
        <ele>139.023254</ele>
        <time>2020-10-26T12:23:53.331Z</time>
      </trkpt>
      <trkpt lat="44.13628" lon="4.99964">
        <ele>138.991768</ele>
        <time>2020-10-26T12:23:57.397Z</time>
      </trkpt>
      <trkpt lat="44.13619" lon="4.99948">
        <ele>138.961119</ele>
        <time>2020-10-26T12:24:01.325Z</time>
      </trkpt>
      <trkpt lat="44.13617" lon="4.99945">
        <ele>138.954211</ele>
        <time>2020-10-26T12:24:02.221Z</time>
      </trkpt>
      <trkpt lat="44.13613" lon="4.99945">
        <ele>138.945797</ele>
        <time>2020-10-26T12:24:03.431Z</time>
      </trkpt>
      <trkpt lat="44.13461" lon="5.00053">
        <ele>138.149756</ele>
        <time>2020-10-26T12:24:48.332Z</time>
      </trkpt>
      <trkpt lat="44.13439" lon="5.00052">
        <ele>137.998694</ele>
        <time>2020-10-26T12:24:53.561Z</time>
      </trkpt>
      <trkpt lat="44.1335" lon="5.00139">
        <ele>136.925098</ele>
        <time>2020-10-26T12:25:18.250Z</time>
      </trkpt>
      <trkpt lat="44.13306" lon="5.00166">
        <ele>136.243295</ele>
        <time>2020-10-26T12:25:29.184Z</time>
      </trkpt>
      <trkpt lat="44.13178" lon="5.00219">
        <ele>133.863284</ele>
        <time>2020-10-26T12:26:00.671Z</time>
      </trkpt>
      <trkpt lat="44.13175" lon="5.00216">
        <ele>133.765138</ele>
        <time>2020-10-26T12:26:01.858Z</time>
      </trkpt>
      <trkpt lat="44.13173" lon="5.00211">
        <ele>133.663223</ele>
        <time>2020-10-26T12:26:03.051Z</time>
      </trkpt>
      <trkpt lat="44.13168" lon="5.00161">
        <ele>132.763153</ele>
        <time>2020-10-26T12:26:11.085Z</time>
      </trkpt>
      <trkpt lat="44.13172" lon="5.00123">
        <ele>132.084481</ele>
        <time>2020-10-26T12:26:16.576Z</time>
      </trkpt>
      <trkpt lat="44.13171" lon="5.00109">
        <ele>131.84266</ele>
        <time>2020-10-26T12:26:19.355Z</time>
      </trkpt>
      <trkpt lat="44.13169" lon="5.00097">
        <ele>131.618081</ele>
        <time>2020-10-26T12:26:21.131Z</time>
      </trkpt>
      <trkpt lat="44.1316" lon="5.00071">
        <ele>131.096488</ele>
        <time>2020-10-26T12:26:25.643Z</time>
      </trkpt>
      <trkpt lat="44.13151" lon="5.00028">
        <ele>129.926149</ele>
        <time>2020-10-26T12:26:31.664Z</time>
      </trkpt>
      <trkpt lat="44.13139" lon="5.00006">
        <ele>128.591944</ele>
        <time>2020-10-26T12:26:35.391Z</time>
      </trkpt>
      <trkpt lat="44.13122" lon="4.99988">
        <ele>127.098366</ele>
        <time>2020-10-26T12:26:39.598Z</time>
      </trkpt>
      <trkpt lat="44.1308" lon="4.99978">
        <ele>124.221438</ele>
        <time>2020-10-26T12:26:47.166Z</time>
      </trkpt>
      <trkpt lat="44.1307" lon="4.99969">
        <ele>123.407268</ele>
        <time>2020-10-26T12:26:49.174Z</time>
      </trkpt>
      <trkpt lat="44.13053" lon="4.99948">
        <ele>121.849221</ele>
        <time>2020-10-26T12:26:53.335Z</time>
      </trkpt>
      <trkpt lat="44.13046" lon="4.99937">
        <ele>121.122034</ele>
        <time>2020-10-26T12:26:55.097Z</time>
      </trkpt>
      <trkpt lat="44.13029" lon="4.99914">
        <ele>119.548787</ele>
        <time>2020-10-26T12:26:59.327Z</time>
      </trkpt>
      <trkpt lat="44.12916" lon="4.99844">
        <ele>111.172628</ele>
        <time>2020-10-26T12:27:21.400Z</time>
      </trkpt>
      <trkpt lat="44.12848" lon="4.9979">
        <ele>105.97893</ele>
        <time>2020-10-26T12:27:36.082Z</time>
      </trkpt>
      <trkpt lat="44.12835" lon="4.99779">
        <ele>105.216207</ele>
        <time>2020-10-26T12:27:38.947Z</time>
      </trkpt>
      <trkpt lat="44.12826" lon="4.9977">
        <ele>104.680467</ele>
        <time>2020-10-26T12:27:41.040Z</time>
      </trkpt>
      <trkpt lat="44.12797" lon="4.9973">
        <ele>102.705898</ele>
        <time>2020-10-26T12:27:48.810Z</time>
      </trkpt>
      <trkpt lat="44.12795" lon="4.99727">
        <ele>102.575227</ele>
        <time>2020-10-26T12:27:49.373Z</time>
      </trkpt>
      <trkpt lat="44.12776" lon="4.99743">
        <ele>101.477441</ele>
        <time>2020-10-26T12:27:53.442Z</time>
      </trkpt>
      <trkpt lat="44.12759" lon="4.99756">
        <ele>100.545036</ele>
        <time>2020-10-26T12:27:57.116Z</time>
      </trkpt>
      <trkpt lat="44.12741" lon="4.99768">
        <ele>99.594928</ele>
        <time>2020-10-26T12:28:00.631Z</time>
      </trkpt>
      <trkpt lat="44.12676" lon="4.99804">
        <ele>96.172555</ele>
        <time>2020-10-26T12:28:13.604Z</time>
      </trkpt>
      <trkpt lat="44.12603" lon="4.99832">
        <ele>92.525473</ele>
        <time>2020-10-26T12:28:27.177Z</time>
      </trkpt>
      <trkpt lat="44.12586" lon="4.99839">
        <ele>91.668119</ele>
        <time>2020-10-26T12:28:30.329Z</time>
      </trkpt>
      <trkpt lat="44.12546" lon="4.99857">
        <ele>89.607437</ele>
        <time>2020-10-26T12:28:38.131Z</time>
      </trkpt>
      <trkpt lat="44.12524" lon="4.99872">
        <ele>88.475193</ele>
        <time>2020-10-26T12:28:42.516Z</time>
      </trkpt>
      <trkpt lat="44.12495" lon="4.99896">
        <ele>87.0816</ele>
        <time>2020-10-26T12:28:48.889Z</time>
      </trkpt>
      <trkpt lat="44.12483" lon="4.99907">
        <ele>86.534592</ele>
        <time>2020-10-26T12:28:51.376Z</time>
      </trkpt>
      <trkpt lat="44.12465" lon="4.99927">
        <ele>85.577245</ele>
        <time>2020-10-26T12:28:55.698Z</time>
      </trkpt>
      <trkpt lat="44.12426" lon="4.99989">
        <ele>83.180629</ele>
        <time>2020-10-26T12:29:06.930Z</time>
      </trkpt>
      <trkpt lat="44.12405" lon="5.00041">
        <ele>81.443767</ele>
        <time>2020-10-26T12:29:15.284Z</time>
      </trkpt>
      <trkpt lat="44.12392" lon="5.00084">
        <ele>80.699605</ele>
        <time>2020-10-26T12:29:21.676Z</time>
      </trkpt>
      <trkpt lat="44.12364" lon="5.00197">
        <ele>78.82543</ele>
        <time>2020-10-26T12:29:39.601Z</time>
      </trkpt>
      <trkpt lat="44.12326" lon="5.00345">
        <ele>77.005168</ele>
        <time>2020-10-26T12:30:04.803Z</time>
      </trkpt>
      <trkpt lat="44.12312" lon="5.00395">
        <ele>76.665985</ele>
        <time>2020-10-26T12:30:13.642Z</time>
      </trkpt>
      <trkpt lat="44.12281" lon="5.00491">
        <ele>75.986857</ele>
        <time>2020-10-26T12:30:31.651Z</time>
      </trkpt>
      <trkpt lat="44.12194" lon="5.00757">
        <ele>75.743687</ele>
        <time>2020-10-26T12:31:23.726Z</time>
      </trkpt>
      <trkpt lat="44.12168" lon="5.00844">
        <ele>77.117921</ele>
        <time>2020-10-26T12:31:41.290Z</time>
      </trkpt>
      <trkpt lat="44.12162" lon="5.00869">
        <ele>77.510166</ele>
        <time>2020-10-26T12:31:46.750Z</time>
      </trkpt>
      <trkpt lat="44.12165" lon="5.00871">
        <ele>77.568843</ele>
        <time>2020-10-26T12:31:47.532Z</time>
      </trkpt>
      <trkpt lat="44.12168" lon="5.00872">
        <ele>77.636732</ele>
        <time>2020-10-26T12:31:48.466Z</time>
      </trkpt>
      <trkpt lat="44.12172" lon="5.00877">
        <ele>77.757386</ele>
        <time>2020-10-26T12:31:50.230Z</time>
      </trkpt>
      <trkpt lat="44.12202" lon="5.00931">
        <ele>78.754384</ele>
        <time>2020-10-26T12:32:05.055Z</time>
      </trkpt>
      <trkpt lat="44.12222" lon="5.01002">
        <ele>80.773374</ele>
        <time>2020-10-26T12:32:21.557Z</time>
      </trkpt>
      <trkpt lat="44.12224" lon="5.01005">
        <ele>80.922328</ele>
        <time>2020-10-26T12:32:22.748Z</time>
      </trkpt>
      <trkpt lat="44.12226" lon="5.01006">
        <ele>81.019141</ele>
        <time>2020-10-26T12:32:23.410Z</time>
      </trkpt>
      <trkpt lat="44.12232" lon="5.01007">
        <ele>81.275213</ele>
        <time>2020-10-26T12:32:25.189Z</time>
      </trkpt>
      <trkpt lat="44.12234" lon="5.01008">
        <ele>81.365438</ele>
        <time>2020-10-26T12:32:26.723Z</time>
      </trkpt>
      <trkpt lat="44.12232" lon="5.01033">
        <ele>82.180524</ele>
        <time>2020-10-26T12:32:32.234Z</time>
      </trkpt>
      <trkpt lat="44.12243" lon="5.01066">
        <ele>83.3544</ele>
        <time>2020-10-26T12:32:41.854Z</time>
      </trkpt>
      <trkpt lat="44.12312" lon="5.01128">
        <ele>87.050623</ele>
        <time>2020-10-26T12:33:07.550Z</time>
      </trkpt>
      <trkpt lat="44.12331" lon="5.01169">
        <ele>87.23689</ele>
        <time>2020-10-26T12:33:17.915Z</time>
      </trkpt>
      <trkpt lat="44.12332" lon="5.01174">
        <ele>87.243065</ele>
        <time>2020-10-26T12:33:20.140Z</time>
      </trkpt>
      <trkpt lat="44.12328" lon="5.01191">
        <ele>87.268434</ele>
        <time>2020-10-26T12:33:23.382Z</time>
      </trkpt>
      <trkpt lat="44.12321" lon="5.01217">
        <ele>87.307058</ele>
        <time>2020-10-26T12:33:28.336Z</time>
      </trkpt>
      <trkpt lat="44.12313" lon="5.01255">
        <ele>87.36106</ele>
        <time>2020-10-26T12:33:35.611Z</time>
      </trkpt>
      <trkpt lat="44.123" lon="5.01285">
        <ele>87.409722</ele>
        <time>2020-10-26T12:33:42.328Z</time>
      </trkpt>
      <trkpt lat="44.12288" lon="5.01351">
        <ele>87.505066</ele>
        <time>2020-10-26T12:33:53.214Z</time>
      </trkpt>
      <trkpt lat="44.12289" lon="5.01388">
        <ele>87.100517</ele>
        <time>2020-10-26T12:33:59.303Z</time>
      </trkpt>
      <trkpt lat="44.12285" lon="5.01405">
        <ele>86.808859</ele>
        <time>2020-10-26T12:34:01.622Z</time>
      </trkpt>
      <trkpt lat="44.12279" lon="5.01427">
        <ele>86.389736</ele>
        <time>2020-10-26T12:34:05.137Z</time>
      </trkpt>
      <trkpt lat="44.12264" lon="5.01513">
        <ele>84.879575</ele>
        <time>2020-10-26T12:34:18.105Z</time>
      </trkpt>
      <trkpt lat="44.12246" lon="5.01587">
        <ele>83.53012</ele>
        <time>2020-10-26T12:34:30.292Z</time>
      </trkpt>
      <trkpt lat="44.12217" lon="5.01654">
        <ele>83.413038</ele>
        <time>2020-10-26T12:34:44.257Z</time>
      </trkpt>
      <trkpt lat="44.12197" lon="5.01726">
        <ele>83.680593</ele>
        <time>2020-10-26T12:34:58.839Z</time>
      </trkpt>
      <trkpt lat="44.12195" lon="5.01743">
        <ele>83.739562</ele>
        <time>2020-10-26T12:35:02.268Z</time>
      </trkpt>
      <trkpt lat="44.12186" lon="5.01908">
        <ele>85.5816</ele>
        <time>2020-10-26T12:35:35.706Z</time>
      </trkpt>
      <trkpt lat="44.12192" lon="5.02072">
        <ele>89.188961</ele>
        <time>2020-10-26T12:36:11.201Z</time>
      </trkpt>
      <trkpt lat="44.12178" lon="5.02253">
        <ele>92.796748</ele>
        <time>2020-10-26T12:36:50.335Z</time>
      </trkpt>
      <trkpt lat="44.12183" lon="5.02339">
        <ele>94.467682</ele>
        <time>2020-10-26T12:37:07.746Z</time>
      </trkpt>
      <trkpt lat="44.12185" lon="5.02373">
        <ele>94.538867</ele>
        <time>2020-10-26T12:37:14.623Z</time>
      </trkpt>
      <trkpt lat="44.12186" lon="5.02392">
        <ele>94.578587</ele>
        <time>2020-10-26T12:37:18.051Z</time>
      </trkpt>
      <trkpt lat="44.12186" lon="5.02452">
        <ele>94.704585</ele>
        <time>2020-10-26T12:37:29.385Z</time>
      </trkpt>
      <trkpt lat="44.12191" lon="5.02468">
        <ele>94.740566</ele>
        <time>2020-10-26T12:37:32.662Z</time>
      </trkpt>
      <trkpt lat="44.12196" lon="5.02482">
        <ele>94.773057</ele>
        <time>2020-10-26T12:37:35.278Z</time>
      </trkpt>
      <trkpt lat="44.12196" lon="5.02492">
        <ele>94.7936</ele>
        <time>2020-10-26T12:37:37.017Z</time>
      </trkpt>
      <trkpt lat="44.12192" lon="5.02535">
        <ele>94.885216</ele>
        <time>2020-10-26T12:37:45.067Z</time>
      </trkpt>
      <trkpt lat="44.12195" lon="5.02599">
        <ele>94.972518</ele>
        <time>2020-10-26T12:37:56.813Z</time>
      </trkpt>
      <trkpt lat="44.12175" lon="5.02668">
        <ele>94.887144</ele>
        <time>2020-10-26T12:38:10.648Z</time>
      </trkpt>
      <trkpt lat="44.12148" lon="5.02712">
        <ele>94.821996</ele>
        <time>2020-10-26T12:38:21.017Z</time>
      </trkpt>
      <trkpt lat="44.12157" lon="5.0275">
        <ele>94.775809</ele>
        <time>2020-10-26T12:38:28.260Z</time>
      </trkpt>
      <trkpt lat="44.12169" lon="5.02803">
        <ele>94.712706</ele>
        <time>2020-10-26T12:38:38.165Z</time>
      </trkpt>
      <trkpt lat="44.1217" lon="5.02826">
        <ele>94.742091</ele>
        <time>2020-10-26T12:38:42.603Z</time>
      </trkpt>
      <trkpt lat="44.12169" lon="5.02838">
        <ele>94.777212</ele>
        <time>2020-10-26T12:38:44.714Z</time>
      </trkpt>
      <trkpt lat="44.12166" lon="5.02843">
        <ele>94.796653</ele>
        <time>2020-10-26T12:38:45.896Z</time>
      </trkpt>
      <trkpt lat="44.12164" lon="5.02846">
        <ele>94.807365</ele>
        <time>2020-10-26T12:38:46.545Z</time>
      </trkpt>
      <trkpt lat="44.12163" lon="5.02847">
        <ele>94.814436</ele>
        <time>2020-10-26T12:38:46.991Z</time>
      </trkpt>
      <trkpt lat="44.12161" lon="5.02848">
        <ele>94.821858</ele>
        <time>2020-10-26T12:38:47.469Z</time>
      </trkpt>
      <trkpt lat="44.1216" lon="5.02851">
        <ele>94.829054</ele>
        <time>2020-10-26T12:38:47.911Z</time>
      </trkpt>
      <trkpt lat="44.1216" lon="5.02853">
        <ele>94.836302</ele>
        <time>2020-10-26T12:38:48.376Z</time>
      </trkpt>
      <trkpt lat="44.12153" lon="5.02865">
        <ele>94.881112</ele>
        <time>2020-10-26T12:38:51.258Z</time>
      </trkpt>
      <trkpt lat="44.12149" lon="5.02872">
        <ele>94.907404</ele>
        <time>2020-10-26T12:38:52.840Z</time>
      </trkpt>
      <trkpt lat="44.12146" lon="5.02886">
        <ele>94.951972</ele>
        <time>2020-10-26T12:38:55.593Z</time>
      </trkpt>
      <trkpt lat="44.12146" lon="5.02892">
        <ele>94.968494</ele>
        <time>2020-10-26T12:38:56.639Z</time>
      </trkpt>
      <trkpt lat="44.12147" lon="5.02898">
        <ele>94.987483</ele>
        <time>2020-10-26T12:38:57.865Z</time>
      </trkpt>
      <trkpt lat="44.12154" lon="5.02949">
        <ele>95.140274</ele>
        <time>2020-10-26T12:39:07.571Z</time>
      </trkpt>
      <trkpt lat="44.12154" lon="5.02957">
        <ele>95.162668</ele>
        <time>2020-10-26T12:39:09.019Z</time>
      </trkpt>
      <trkpt lat="44.12153" lon="5.02965">
        <ele>95.187796</ele>
        <time>2020-10-26T12:39:10.659Z</time>
      </trkpt>
      <trkpt lat="44.12152" lon="5.0297">
        <ele>95.201375</ele>
        <time>2020-10-26T12:39:11.511Z</time>
      </trkpt>
      <trkpt lat="44.12152" lon="5.02973">
        <ele>95.211585</ele>
        <time>2020-10-26T12:39:12.131Z</time>
      </trkpt>
      <trkpt lat="44.12152" lon="5.02975">
        <ele>95.217818</ele>
        <time>2020-10-26T12:39:12.517Z</time>
      </trkpt>
      <trkpt lat="44.12152" lon="5.02978">
        <ele>95.224495</ele>
        <time>2020-10-26T12:39:12.916Z</time>
      </trkpt>
      <trkpt lat="44.1216" lon="5.02989">
        <ele>95.270979</ele>
        <time>2020-10-26T12:39:15.815Z</time>
      </trkpt>
      <trkpt lat="44.12164" lon="5.02996">
        <ele>95.296586</ele>
        <time>2020-10-26T12:39:17.473Z</time>
      </trkpt>
      <trkpt lat="44.12177" lon="5.03112">
        <ele>96.473329</ele>
        <time>2020-10-26T12:39:39.760Z</time>
      </trkpt>
      <trkpt lat="44.12185" lon="5.0314">
        <ele>96.91572</ele>
        <time>2020-10-26T12:39:45.465Z</time>
      </trkpt>
      <trkpt lat="44.12188" lon="5.03145">
        <ele>97.008672</ele>
        <time>2020-10-26T12:39:46.673Z</time>
      </trkpt>
      <trkpt lat="44.12195" lon="5.03154">
        <ele>97.221004</ele>
        <time>2020-10-26T12:39:49.584Z</time>
      </trkpt>
      <trkpt lat="44.12246" lon="5.03222">
        <ele>98.672795</ele>
        <time>2020-10-26T12:40:09.430Z</time>
      </trkpt>
      <trkpt lat="44.12278" lon="5.0328">
        <ele>100.112329</ele>
        <time>2020-10-26T12:40:25.150Z</time>
      </trkpt>
      <trkpt lat="44.1229" lon="5.03294">
        <ele>100.6009</ele>
        <time>2020-10-26T12:40:29.242Z</time>
      </trkpt>
      <trkpt lat="44.12295" lon="5.03298">
        <ele>100.790827</ele>
        <time>2020-10-26T12:40:31.068Z</time>
      </trkpt>
      <trkpt lat="44.12302" lon="5.03301">
        <ele>101.042123</ele>
        <time>2020-10-26T12:40:33.879Z</time>
      </trkpt>
      <trkpt lat="44.12332" lon="5.03305">
        <ele>101.997483</ele>
        <time>2020-10-26T12:40:42.070Z</time>
      </trkpt>
      <trkpt lat="44.12336" lon="5.03306">
        <ele>102.138952</ele>
        <time>2020-10-26T12:40:43.782Z</time>
      </trkpt>
      <trkpt lat="44.12341" lon="5.03311">
        <ele>102.326865</ele>
        <time>2020-10-26T12:40:45.653Z</time>
      </trkpt>
      <trkpt lat="44.12357" lon="5.03388">
        <ele>104.192843</ele>
        <time>2020-10-26T12:41:01.996Z</time>
      </trkpt>
      <trkpt lat="44.12411" lon="5.03533">
        <ele>106.934619</ele>
        <time>2020-10-26T12:41:35.349Z</time>
      </trkpt>
      <trkpt lat="44.12425" lon="5.03574">
        <ele>107.623571</ele>
        <time>2020-10-26T12:41:44.189Z</time>
      </trkpt>
      <trkpt lat="44.12432" lon="5.03598">
        <ele>108.018682</ele>
        <time>2020-10-26T12:41:49.254Z</time>
      </trkpt>
      <trkpt lat="44.12456" lon="5.03703">
        <ele>109.350344</ele>
        <time>2020-10-26T12:42:10.604Z</time>
      </trkpt>
      <trkpt lat="44.12492" lon="5.0378">
        <ele>110.246969</ele>
        <time>2020-10-26T12:42:28.440Z</time>
      </trkpt>
      <trkpt lat="44.1251" lon="5.03809">
        <ele>110.615998</ele>
        <time>2020-10-26T12:42:35.685Z</time>
      </trkpt>
      <trkpt lat="44.12515" lon="5.03814">
        <ele>110.701796</ele>
        <time>2020-10-26T12:42:37.466Z</time>
      </trkpt>
      <trkpt lat="44.12537" lon="5.03828">
        <ele>111.033422</ele>
        <time>2020-10-26T12:42:44.011Z</time>
      </trkpt>
      <trkpt lat="44.12599" lon="5.03897">
        <ele>112.133449</ele>
        <time>2020-10-26T12:43:05.513Z</time>
      </trkpt>
      <trkpt lat="44.12612" lon="5.0391">
        <ele>112.344941</ele>
        <time>2020-10-26T12:43:09.676Z</time>
      </trkpt>
      <trkpt lat="44.12623" lon="5.03921">
        <ele>112.528523</ele>
        <time>2020-10-26T12:43:13.209Z</time>
      </trkpt>
      <trkpt lat="44.1295" lon="5.0415">
        <ele>118.252954</ele>
        <time>2020-10-26T12:44:52.285Z</time>
      </trkpt>
      <trkpt lat="44.1296" lon="5.04157">
        <ele>118.471614</ele>
        <time>2020-10-26T12:44:55.777Z</time>
      </trkpt>
      <trkpt lat="44.1299" lon="5.04164">
        <ele>119.072211</ele>
        <time>2020-10-26T12:45:04.194Z</time>
      </trkpt>
      <trkpt lat="44.13079" lon="5.04157">
        <ele>121.396658</ele>
        <time>2020-10-26T12:45:28.918Z</time>
      </trkpt>
      <trkpt lat="44.13104" lon="5.04161">
        <ele>122.174751</ele>
        <time>2020-10-26T12:45:36.448Z</time>
      </trkpt>
      <trkpt lat="44.13113" lon="5.04164">
        <ele>122.469711</ele>
        <time>2020-10-26T12:45:39.153Z</time>
      </trkpt>
      <trkpt lat="44.13129" lon="5.04171">
        <ele>122.978027</ele>
        <time>2020-10-26T12:45:43.779Z</time>
      </trkpt>
      <trkpt lat="44.1314" lon="5.04178">
        <ele>123.36602</ele>
        <time>2020-10-26T12:45:47.408Z</time>
      </trkpt>
      <trkpt lat="44.13164" lon="5.04198">
        <ele>124.219216</ele>
        <time>2020-10-26T12:45:55.237Z</time>
      </trkpt>
      <trkpt lat="44.13196" lon="5.04228">
        <ele>125.463895</ele>
        <time>2020-10-26T12:46:06.320Z</time>
      </trkpt>
      <trkpt lat="44.13236" lon="5.04266">
        <ele>127.79643</ele>
        <time>2020-10-26T12:46:21.215Z</time>
      </trkpt>
      <trkpt lat="44.1332" lon="5.04353">
        <ele>132.821522</ele>
        <time>2020-10-26T12:46:54.686Z</time>
      </trkpt>
      <trkpt lat="44.13326" lon="5.04361">
        <ele>133.220272</ele>
        <time>2020-10-26T12:46:57.919Z</time>
      </trkpt>
      <trkpt lat="44.13339" lon="5.04381">
        <ele>134.143755</ele>
        <time>2020-10-26T12:47:03.874Z</time>
      </trkpt>
      <trkpt lat="44.13355" lon="5.0441">
        <ele>135.364076</ele>
        <time>2020-10-26T12:47:12.359Z</time>
      </trkpt>
      <trkpt lat="44.1336" lon="5.04418">
        <ele>135.723851</ele>
        <time>2020-10-26T12:47:14.651Z</time>
      </trkpt>
      <trkpt lat="44.13372" lon="5.04434">
        <ele>136.486834</ele>
        <time>2020-10-26T12:47:19.767Z</time>
      </trkpt>
      <trkpt lat="44.13376" lon="5.04437">
        <ele>136.685243</ele>
        <time>2020-10-26T12:47:21.290Z</time>
      </trkpt>
      <trkpt lat="44.13385" lon="5.04444">
        <ele>137.156546</ele>
        <time>2020-10-26T12:47:24.349Z</time>
      </trkpt>
      <trkpt lat="44.13443" lon="5.04472">
        <ele>140.035468</ele>
        <time>2020-10-26T12:47:43.835Z</time>
      </trkpt>
      <trkpt lat="44.13498" lon="5.04466">
        <ele>142.541212</ele>
        <time>2020-10-26T12:48:00.104Z</time>
      </trkpt>
      <trkpt lat="44.13538" lon="5.04471">
        <ele>144.243992</ele>
        <time>2020-10-26T12:48:11.859Z</time>
      </trkpt>
      <trkpt lat="44.13633" lon="5.04518">
        <ele>148.467135</ele>
        <time>2020-10-26T12:48:42.742Z</time>
      </trkpt>
      <trkpt lat="44.1371" lon="5.04564">
        <ele>151.292821</ele>
        <time>2020-10-26T12:49:08.146Z</time>
      </trkpt>
      <trkpt lat="44.13719" lon="5.04573">
        <ele>151.596323</ele>
        <time>2020-10-26T12:49:11.804Z</time>
      </trkpt>
      <trkpt lat="44.13772" lon="5.04643">
        <ele>153.662247</ele>
        <time>2020-10-26T12:49:32.622Z</time>
      </trkpt>
      <trkpt lat="44.13794" lon="5.04658">
        <ele>154.350995</ele>
        <time>2020-10-26T12:49:39.131Z</time>
      </trkpt>
      <trkpt lat="44.13976" lon="5.04658">
        <ele>155.895104</ele>
        <time>2020-10-26T12:50:26.433Z</time>
      </trkpt>
      <trkpt lat="44.14024" lon="5.04674">
        <ele>156.258804</ele>
        <time>2020-10-26T12:50:39.163Z</time>
      </trkpt>
      <trkpt lat="44.14063" lon="5.04714">
        <ele>156.660461</ele>
        <time>2020-10-26T12:50:51.921Z</time>
      </trkpt>
      <trkpt lat="44.14148" lon="5.04842">
        <ele>157.601686</ele>
        <time>2020-10-26T12:51:25.364Z</time>
      </trkpt>
      <trkpt lat="44.1417" lon="5.04854">
        <ele>157.700018</ele>
        <time>2020-10-26T12:51:31.641Z</time>
      </trkpt>
      <trkpt lat="44.14226" lon="5.04859">
        <ele>157.931252</ele>
        <time>2020-10-26T12:51:46.226Z</time>
      </trkpt>
      <trkpt lat="44.14235" lon="5.04868">
        <ele>157.976909</ele>
        <time>2020-10-26T12:51:49.099Z</time>
      </trkpt>
      <trkpt lat="44.14265" lon="5.04925">
        <ele>158.185697</ele>
        <time>2020-10-26T12:52:02.232Z</time>
      </trkpt>
      <trkpt lat="44.14289" lon="5.04944">
        <ele>158.167639</ele>
        <time>2020-10-26T12:52:09.076Z</time>
      </trkpt>
      <trkpt lat="44.14309" lon="5.04949">
        <ele>158.053829</ele>
        <time>2020-10-26T12:52:14.219Z</time>
      </trkpt>
      <trkpt lat="44.1437" lon="5.04944">
        <ele>157.713011</ele>
        <time>2020-10-26T12:52:28.209Z</time>
      </trkpt>
      <trkpt lat="44.14393" lon="5.04949">
        <ele>157.583676</ele>
        <time>2020-10-26T12:52:33.469Z</time>
      </trkpt>
      <trkpt lat="44.14403" lon="5.04962">
        <ele>157.50695</ele>
        <time>2020-10-26T12:52:36.726Z</time>
      </trkpt>
      <trkpt lat="44.1442" lon="5.05025">
        <ele>157.261763</ele>
        <time>2020-10-26T12:52:48.143Z</time>
      </trkpt>
      <trkpt lat="44.14423" lon="5.0503">
        <ele>157.371363</ele>
        <time>2020-10-26T12:52:49.296Z</time>
      </trkpt>
      <trkpt lat="44.14429" lon="5.05034">
        <ele>157.515872</ele>
        <time>2020-10-26T12:52:50.895Z</time>
      </trkpt>
      <trkpt lat="44.14432" lon="5.05035">
        <ele>157.585909</ele>
        <time>2020-10-26T12:52:51.654Z</time>
      </trkpt>
      <trkpt lat="44.14449" lon="5.05042">
        <ele>157.98148</ele>
        <time>2020-10-26T12:52:56.134Z</time>
      </trkpt>
      <trkpt lat="44.14455" lon="5.05044">
        <ele>158.12902</ele>
        <time>2020-10-26T12:52:57.778Z</time>
      </trkpt>
      <trkpt lat="44.14564" lon="5.05083">
        <ele>160.635518</ele>
        <time>2020-10-26T12:53:28.702Z</time>
      </trkpt>
      <trkpt lat="44.14576" lon="5.05087">
        <ele>160.913958</ele>
        <time>2020-10-26T12:53:32.481Z</time>
      </trkpt>
      <trkpt lat="44.146" lon="5.05096">
        <ele>161.687545</ele>
        <time>2020-10-26T12:53:40.657Z</time>
      </trkpt>
      <trkpt lat="44.14627" lon="5.05107">
        <ele>162.948807</ele>
        <time>2020-10-26T12:53:50.544Z</time>
      </trkpt>
      <trkpt lat="44.14646" lon="5.05114">
        <ele>163.811812</ele>
        <time>2020-10-26T12:53:57.116Z</time>
      </trkpt>
      <trkpt lat="44.14658" lon="5.05119">
        <ele>164.370029</ele>
        <time>2020-10-26T12:54:01.218Z</time>
      </trkpt>
      <trkpt lat="44.14671" lon="5.05121">
        <ele>164.956104</ele>
        <time>2020-10-26T12:54:05.450Z</time>
      </trkpt>
      <trkpt lat="44.14691" lon="5.05119">
        <ele>165.851158</ele>
        <time>2020-10-26T12:54:11.595Z</time>
      </trkpt>
      <trkpt lat="44.14697" lon="5.05118">
        <ele>166.123411</ele>
        <time>2020-10-26T12:54:13.557Z</time>
      </trkpt>
      <trkpt lat="44.14705" lon="5.05119">
        <ele>166.502723</ele>
        <time>2020-10-26T12:54:16.023Z</time>
      </trkpt>
      <trkpt lat="44.14712" lon="5.05122">
        <ele>166.852082</ele>
        <time>2020-10-26T12:54:18.432Z</time>
      </trkpt>
      <trkpt lat="44.14718" lon="5.05125">
        <ele>167.131964</ele>
        <time>2020-10-26T12:54:20.331Z</time>
      </trkpt>
      <trkpt lat="44.14729" lon="5.0513">
        <ele>167.622338</ele>
        <time>2020-10-26T12:54:23.586Z</time>
      </trkpt>
      <trkpt lat="44.14748" lon="5.05143">
        <ele>168.598279</ele>
        <time>2020-10-26T12:54:30.180Z</time>
      </trkpt>
      <trkpt lat="44.14747" lon="5.05154">
        <ele>168.96884</ele>
        <time>2020-10-26T12:54:32.540Z</time>
      </trkpt>
      <trkpt lat="44.14744" lon="5.05164">
        <ele>169.312588</ele>
        <time>2020-10-26T12:54:34.825Z</time>
      </trkpt>
      <trkpt lat="44.14732" lon="5.05174">
        <ele>169.32669</ele>
        <time>2020-10-26T12:54:38.735Z</time>
      </trkpt>
      <trkpt lat="44.14702" lon="5.05187">
        <ele>169.283942</ele>
        <time>2020-10-26T12:54:47.386Z</time>
      </trkpt>
      <trkpt lat="44.14693" lon="5.05191">
        <ele>169.271062</ele>
        <time>2020-10-26T12:54:49.994Z</time>
      </trkpt>
      <trkpt lat="44.14678" lon="5.052">
        <ele>169.247841</ele>
        <time>2020-10-26T12:54:54.474Z</time>
      </trkpt>
      <trkpt lat="44.14672" lon="5.05203">
        <ele>169.239714</ele>
        <time>2020-10-26T12:54:56.020Z</time>
      </trkpt>
      <trkpt lat="44.1466" lon="5.05213">
        <ele>169.220088</ele>
        <time>2020-10-26T12:54:59.878Z</time>
      </trkpt>
      <trkpt lat="44.14648" lon="5.05229">
        <ele>169.19815</ele>
        <time>2020-10-26T12:55:03.775Z</time>
      </trkpt>
      <trkpt lat="44.14648" lon="5.05244">
        <ele>169.183337</ele>
        <time>2020-10-26T12:55:06.628Z</time>
      </trkpt>
      <trkpt lat="44.14677" lon="5.05308">
        <ele>169.108596</ele>
        <time>2020-10-26T12:55:17.570Z</time>
      </trkpt>
      <trkpt lat="44.14648" lon="5.05244">
        <ele>168.21217</ele>
        <time>2020-10-26T12:55:27.641Z</time>
      </trkpt>
      <trkpt lat="44.14648" lon="5.05229">
        <ele>168.010807</ele>
        <time>2020-10-26T12:55:29.822Z</time>
      </trkpt>
      <trkpt lat="44.1466" lon="5.05213">
        <ele>167.712589</ele>
        <time>2020-10-26T12:55:33.311Z</time>
      </trkpt>
      <trkpt lat="44.14672" lon="5.05203">
        <ele>167.445803</ele>
        <time>2020-10-26T12:55:36.132Z</time>
      </trkpt>
      <trkpt lat="44.14667" lon="5.05184">
        <ele>167.174151</ele>
        <time>2020-10-26T12:55:46.360Z</time>
      </trkpt>
      <trkpt lat="44.14663" lon="5.05185">
        <ele>167.091525</ele>
        <time>2020-10-26T12:55:49.442Z</time>
      </trkpt>
      <trkpt lat="44.14654" lon="5.05186">
        <ele>166.925373</ele>
        <time>2020-10-26T12:55:55.621Z</time>
      </trkpt>
      <trkpt lat="44.14653" lon="5.0519">
        <ele>166.868565</ele>
        <time>2020-10-26T12:55:56.181Z</time>
      </trkpt>
      <trkpt lat="44.14639" lon="5.05197">
        <ele>166.595463</ele>
        <time>2020-10-26T12:56:00.279Z</time>
      </trkpt>
      <trkpt lat="44.14629" lon="5.05192">
        <ele>166.402496</ele>
        <time>2020-10-26T12:56:02.474Z</time>
      </trkpt>
      <trkpt lat="44.14625" lon="5.0519">
        <ele>166.3176</ele>
        <time>2020-10-26T12:56:03.538Z</time>
      </trkpt>
      <trkpt lat="44.14616" lon="5.05202">
        <ele>166.087225</ele>
        <time>2020-10-26T12:56:06.405Z</time>
      </trkpt>
      <trkpt lat="44.1461" lon="5.05209">
        <ele>165.949481</ele>
        <time>2020-10-26T12:56:08.417Z</time>
      </trkpt>
      <trkpt lat="44.14605" lon="5.05219">
        <ele>165.782742</ele>
        <time>2020-10-26T12:56:10.330Z</time>
      </trkpt>
      <trkpt lat="44.14599" lon="5.0522">
        <ele>166.091376</ele>
        <time>2020-10-26T12:56:11.716Z</time>
      </trkpt>
      <trkpt lat="44.14584" lon="5.05208">
        <ele>167.156414</ele>
        <time>2020-10-26T12:56:16.858Z</time>
      </trkpt>
      <trkpt lat="44.14586" lon="5.05213">
        <ele>167.421119</ele>
        <time>2020-10-26T12:56:18.558Z</time>
      </trkpt>
      <trkpt lat="44.14621" lon="5.05277">
        <ele>171.118478</ele>
        <time>2020-10-26T12:56:41.625Z</time>
      </trkpt>
      <trkpt lat="44.14622" lon="5.05285">
        <ele>171.483432</ele>
        <time>2020-10-26T12:56:44.816Z</time>
      </trkpt>
      <trkpt lat="44.14621" lon="5.05291">
        <ele>171.769009</ele>
        <time>2020-10-26T12:56:46.646Z</time>
      </trkpt>
      <trkpt lat="44.14608" lon="5.05303">
        <ele>172.733678</ele>
        <time>2020-10-26T12:56:52.888Z</time>
      </trkpt>
      <trkpt lat="44.14605" lon="5.05305">
        <ele>172.967734</ele>
        <time>2020-10-26T12:56:54.478Z</time>
      </trkpt>
      <trkpt lat="44.14599" lon="5.05309">
        <ele>173.419906</ele>
        <time>2020-10-26T12:56:58.529Z</time>
      </trkpt>
      <trkpt lat="44.14592" lon="5.05308">
        <ele>173.819854</ele>
        <time>2020-10-26T12:57:02.278Z</time>
      </trkpt>
      <trkpt lat="44.1457" lon="5.05296">
        <ele>175.346714</ele>
        <time>2020-10-26T12:57:13.553Z</time>
      </trkpt>
      <trkpt lat="44.14561" lon="5.05295">
        <ele>175.909901</ele>
        <time>2020-10-26T12:57:19.940Z</time>
      </trkpt>
      <trkpt lat="44.14537" lon="5.05314">
        <ele>178.306179</ele>
        <time>2020-10-26T12:57:35.189Z</time>
      </trkpt>
      <trkpt lat="44.14526" lon="5.05492">
        <ele>197.595983</ele>
        <time>2020-10-26T12:59:03.284Z</time>
      </trkpt>
      <trkpt lat="44.14531" lon="5.05505">
        <ele>199.173348</ele>
        <time>2020-10-26T12:59:09.924Z</time>
      </trkpt>
      <trkpt lat="44.14553" lon="5.0553">
        <ele>203.576868</ele>
        <time>2020-10-26T12:59:31.240Z</time>
      </trkpt>
      <trkpt lat="44.14556" lon="5.05542">
        <ele>204.746126</ele>
        <time>2020-10-26T12:59:36.351Z</time>
      </trkpt>
      <trkpt lat="44.14539" lon="5.05564">
        <ele>207.506063</ele>
        <time>2020-10-26T12:59:52.782Z</time>
      </trkpt>
      <trkpt lat="44.14506" lon="5.0558">
        <ele>211.518946</ele>
        <time>2020-10-26T13:00:14.303Z</time>
      </trkpt>
      <trkpt lat="44.14499" lon="5.05597">
        <ele>213.170818</ele>
        <time>2020-10-26T13:00:21.626Z</time>
      </trkpt>
      <trkpt lat="44.14499" lon="5.05602">
        <ele>213.653545</ele>
        <time>2020-10-26T13:00:25.318Z</time>
      </trkpt>
      <trkpt lat="44.14497" lon="5.05611">
        <ele>214.398018</ele>
        <time>2020-10-26T13:00:28.886Z</time>
      </trkpt>
      <trkpt lat="44.14497" lon="5.05638">
        <ele>216.669217</ele>
        <time>2020-10-26T13:00:38.141Z</time>
      </trkpt>
      <trkpt lat="44.14499" lon="5.05658">
        <ele>218.386127</ele>
        <time>2020-10-26T13:00:48.022Z</time>
      </trkpt>
      <trkpt lat="44.145" lon="5.05673">
        <ele>219.623658</ele>
        <time>2020-10-26T13:00:52.796Z</time>
      </trkpt>
      <trkpt lat="44.145" lon="5.05688">
        <ele>220.905676</ele>
        <time>2020-10-26T13:00:57.731Z</time>
      </trkpt>
      <trkpt lat="44.14502" lon="5.05717">
        <ele>223.359932</ele>
        <time>2020-10-26T13:01:09.550Z</time>
      </trkpt>
      <trkpt lat="44.14502" lon="5.05828">
        <ele>229.700392</ele>
        <time>2020-10-26T13:01:46.359Z</time>
      </trkpt>
      <trkpt lat="44.14481" lon="5.05857">
        <ele>231.75614</ele>
        <time>2020-10-26T13:01:58.367Z</time>
      </trkpt>
      <trkpt lat="44.14472" lon="5.05883">
        <ele>233.177533</ele>
        <time>2020-10-26T13:02:06.674Z</time>
      </trkpt>
      <trkpt lat="44.14444" lon="5.05906">
        <ele>235.413458</ele>
        <time>2020-10-26T13:02:22.289Z</time>
      </trkpt>
      <trkpt lat="44.14395" lon="5.0601">
        <ele>243.197107</ele>
        <time>2020-10-26T13:03:05.160Z</time>
      </trkpt>
      <trkpt lat="44.14385" lon="5.0602">
        <ele>244.444405</ele>
        <time>2020-10-26T13:03:14.245Z</time>
      </trkpt>
      <trkpt lat="44.1436" lon="5.06026">
        <ele>246.904083</ele>
        <time>2020-10-26T13:03:25.002Z</time>
      </trkpt>
      <trkpt lat="44.14354" lon="5.06026">
        <ele>247.515461</ele>
        <time>2020-10-26T13:03:29.393Z</time>
      </trkpt>
      <trkpt lat="44.1435" lon="5.06027">
        <ele>247.946952</ele>
        <time>2020-10-26T13:03:33.205Z</time>
      </trkpt>
      <trkpt lat="44.14329" lon="5.06019">
        <ele>250.089892</ele>
        <time>2020-10-26T13:03:42.755Z</time>
      </trkpt>
      <trkpt lat="44.14316" lon="5.06023">
        <ele>251.465501</ele>
        <time>2020-10-26T13:03:52.363Z</time>
      </trkpt>
      <trkpt lat="44.14306" lon="5.06115">
        <ele>258.057598</ele>
        <time>2020-10-26T13:04:28.149Z</time>
      </trkpt>
      <trkpt lat="44.14316" lon="5.06122">
        <ele>259.165732</ele>
        <time>2020-10-26T13:04:35.928Z</time>
      </trkpt>
      <trkpt lat="44.14359" lon="5.0612">
        <ele>263.334953</ele>
        <time>2020-10-26T13:04:59.707Z</time>
      </trkpt>
      <trkpt lat="44.14385" lon="5.06125">
        <ele>265.854378</ele>
        <time>2020-10-26T13:05:12.134Z</time>
      </trkpt>
      <trkpt lat="44.1442" lon="5.06151">
        <ele>269.702026</ele>
        <time>2020-10-26T13:05:31.821Z</time>
      </trkpt>
      <trkpt lat="44.14463" lon="5.06195">
        <ele>274.580788</ele>
        <time>2020-10-26T13:05:58.322Z</time>
      </trkpt>
      <trkpt lat="44.14468" lon="5.06241">
        <ele>277.420967</ele>
        <time>2020-10-26T13:06:15.439Z</time>
      </trkpt>
      <trkpt lat="44.14484" lon="5.06291">
        <ele>280.698296</ele>
        <time>2020-10-26T13:06:35.947Z</time>
      </trkpt>
      <trkpt lat="44.14479" lon="5.06321">
        <ele>282.543819</ele>
        <time>2020-10-26T13:06:47.441Z</time>
      </trkpt>
      <trkpt lat="44.14506" lon="5.06379">
        <ele>286.647656</ele>
        <time>2020-10-26T13:07:10.596Z</time>
      </trkpt>
      <trkpt lat="44.14527" lon="5.06407">
        <ele>288.632674</ele>
        <time>2020-10-26T13:07:24.084Z</time>
      </trkpt>
      <trkpt lat="44.14538" lon="5.06431">
        <ele>289.494664</ele>
        <time>2020-10-26T13:07:32.735Z</time>
      </trkpt>
      <trkpt lat="44.14537" lon="5.06441">
        <ele>289.801927</ele>
        <time>2020-10-26T13:07:36.605Z</time>
      </trkpt>
      <trkpt lat="44.14526" lon="5.06421">
        <ele>290.552571</ele>
        <time>2020-10-26T13:07:42.085Z</time>
      </trkpt>
      <trkpt lat="44.14444" lon="5.06316">
        <ele>295.239759</ele>
        <time>2020-10-26T13:08:14.490Z</time>
      </trkpt>
      <trkpt lat="44.14405" lon="5.06246">
        <ele>297.748912</ele>
        <time>2020-10-26T13:08:32.048Z</time>
      </trkpt>
      <trkpt lat="44.14404" lon="5.06243">
        <ele>297.858015</ele>
        <time>2020-10-26T13:08:32.737Z</time>
      </trkpt>
      <trkpt lat="44.14376" lon="5.06211">
        <ele>299.277498</ele>
        <time>2020-10-26T13:08:42.923Z</time>
      </trkpt>
      <trkpt lat="44.14365" lon="5.06209">
        <ele>299.712363</ele>
        <time>2020-10-26T13:08:46.137Z</time>
      </trkpt>
      <trkpt lat="44.1429" lon="5.06239">
        <ele>302.718592</ele>
        <time>2020-10-26T13:09:10.208Z</time>
      </trkpt>
      <trkpt lat="44.14285" lon="5.06245">
        <ele>303.246754</ele>
        <time>2020-10-26T13:09:12.727Z</time>
      </trkpt>
      <trkpt lat="44.14268" lon="5.06298">
        <ele>306.397959</ele>
        <time>2020-10-26T13:09:29.203Z</time>
      </trkpt>
      <trkpt lat="44.14252" lon="5.0631">
        <ele>307.751361</ele>
        <time>2020-10-26T13:09:35.531Z</time>
      </trkpt>
      <trkpt lat="44.14181" lon="5.06271">
        <ele>313.503002</ele>
        <time>2020-10-26T13:10:04.363Z</time>
      </trkpt>
      <trkpt lat="44.14164" lon="5.06233">
        <ele>315.94436</ele>
        <time>2020-10-26T13:10:15.971Z</time>
      </trkpt>
      <trkpt lat="44.14158" lon="5.06221">
        <ele>316.729475</ele>
        <time>2020-10-26T13:10:20.531Z</time>
      </trkpt>
      <trkpt lat="44.14157" lon="5.06218">
        <ele>316.884741</ele>
        <time>2020-10-26T13:10:21.391Z</time>
      </trkpt>
      <trkpt lat="44.1415" lon="5.06202">
        <ele>317.846745</ele>
        <time>2020-10-26T13:10:26.052Z</time>
      </trkpt>
      <trkpt lat="44.14148" lon="5.06198">
        <ele>318.068275</ele>
        <time>2020-10-26T13:10:28.180Z</time>
      </trkpt>
      <trkpt lat="44.14145" lon="5.06196">
        <ele>318.281042</ele>
        <time>2020-10-26T13:10:30.236Z</time>
      </trkpt>
      <trkpt lat="44.14147" lon="5.0619">
        <ele>318.608777</ele>
        <time>2020-10-26T13:10:31.466Z</time>
      </trkpt>
      <trkpt lat="44.14175" lon="5.06167">
        <ele>320.871004</ele>
        <time>2020-10-26T13:10:44.885Z</time>
      </trkpt>
      <trkpt lat="44.14176" lon="5.06161">
        <ele>321.197293</ele>
        <time>2020-10-26T13:10:46.189Z</time>
      </trkpt>
      <trkpt lat="44.14171" lon="5.06153">
        <ele>321.715776</ele>
        <time>2020-10-26T13:10:49.349Z</time>
      </trkpt>
      <trkpt lat="44.1414" lon="5.06136">
        <ele>324.08596</ele>
        <time>2020-10-26T13:11:01.814Z</time>
      </trkpt>
      <trkpt lat="44.14111" lon="5.06075">
        <ele>327.733506</ele>
        <time>2020-10-26T13:11:18.951Z</time>
      </trkpt>
      <trkpt lat="44.14109" lon="5.06072">
        <ele>327.983191</ele>
        <time>2020-10-26T13:11:20.504Z</time>
      </trkpt>
      <trkpt lat="44.14106" lon="5.06066">
        <ele>328.318889</ele>
        <time>2020-10-26T13:11:23.542Z</time>
      </trkpt>
      <trkpt lat="44.14094" lon="5.06061">
        <ele>329.059388</ele>
        <time>2020-10-26T13:11:26.519Z</time>
      </trkpt>
      <trkpt lat="44.1402" lon="5.05971">
        <ele>332.722327</ele>
        <time>2020-10-26T13:11:56.197Z</time>
      </trkpt>
      <trkpt lat="44.13984" lon="5.0594">
        <ele>334.326348</ele>
        <time>2020-10-26T13:12:08.111Z</time>
      </trkpt>
      <trkpt lat="44.1401" lon="5.05827">
        <ele>337.142312</ele>
        <time>2020-10-26T13:12:32.882Z</time>
      </trkpt>
      <trkpt lat="44.14021" lon="5.05811">
        <ele>337.599754</ele>
        <time>2020-10-26T13:12:36.534Z</time>
      </trkpt>
      <trkpt lat="44.14046" lon="5.05793">
        <ele>338.463616</ele>
        <time>2020-10-26T13:12:45.398Z</time>
      </trkpt>
      <trkpt lat="44.14053" lon="5.05785">
        <ele>338.730987</ele>
        <time>2020-10-26T13:12:47.091Z</time>
      </trkpt>
      <trkpt lat="44.14055" lon="5.05773">
        <ele>338.981229</ele>
        <time>2020-10-26T13:12:50.442Z</time>
      </trkpt>
      <trkpt lat="44.14055" lon="5.05764">
        <ele>339.18577</ele>
        <time>2020-10-26T13:12:54.585Z</time>
      </trkpt>
      <trkpt lat="44.14036" lon="5.05712">
        <ele>340.436722</ele>
        <time>2020-10-26T13:13:11.256Z</time>
      </trkpt>
      <trkpt lat="44.14003" lon="5.05681">
        <ele>340.824169</ele>
        <time>2020-10-26T13:13:27.124Z</time>
      </trkpt>
      <trkpt lat="44.13927" lon="5.05641">
        <ele>339.962534</ele>
        <time>2020-10-26T13:13:59.602Z</time>
      </trkpt>
      <trkpt lat="44.13897" lon="5.05641">
        <ele>339.644727</ele>
        <time>2020-10-26T13:14:09.799Z</time>
      </trkpt>
      <trkpt lat="44.13877" lon="5.05632">
        <ele>339.427705</ele>
        <time>2020-10-26T13:14:16.773Z</time>
      </trkpt>
      <trkpt lat="44.13865" lon="5.05612">
        <ele>339.22936</ele>
        <time>2020-10-26T13:14:23.014Z</time>
      </trkpt>
      <trkpt lat="44.13812" lon="5.05572">
        <ele>333.108048</ele>
        <time>2020-10-26T13:14:41.463Z</time>
      </trkpt>
      <trkpt lat="44.13807" lon="5.05568">
        <ele>332.48066</ele>
        <time>2020-10-26T13:14:42.940Z</time>
      </trkpt>
      <trkpt lat="44.13805" lon="5.05565">
        <ele>332.107226</ele>
        <time>2020-10-26T13:14:43.917Z</time>
      </trkpt>
      <trkpt lat="44.138" lon="5.0557">
        <ele>331.431579</ele>
        <time>2020-10-26T13:14:45.915Z</time>
      </trkpt>
      <trkpt lat="44.13795" lon="5.05569">
        <ele>330.799461</ele>
        <time>2020-10-26T13:14:47.369Z</time>
      </trkpt>
      <trkpt lat="44.1374" lon="5.0556">
        <ele>324.303686</ele>
        <time>2020-10-26T13:15:03.177Z</time>
      </trkpt>
      <trkpt lat="44.13717" lon="5.05569">
        <ele>321.538334</ele>
        <time>2020-10-26T13:15:09.724Z</time>
      </trkpt>
      <trkpt lat="44.13693" lon="5.05587">
        <ele>318.335669</ele>
        <time>2020-10-26T13:15:17.295Z</time>
      </trkpt>
      <trkpt lat="44.13641" lon="5.05588">
        <ele>311.084516</ele>
        <time>2020-10-26T13:15:31.713Z</time>
      </trkpt>
      <trkpt lat="44.13615" lon="5.05594">
        <ele>307.387766</ele>
        <time>2020-10-26T13:15:39.140Z</time>
      </trkpt>
      <trkpt lat="44.13506" lon="5.0562">
        <ele>292.056052</ele>
        <time>2020-10-26T13:16:10.021Z</time>
      </trkpt>
      <trkpt lat="44.13456" lon="5.05613">
        <ele>285.405057</ele>
        <time>2020-10-26T13:16:24.370Z</time>
      </trkpt>
      <trkpt lat="44.13413" lon="5.05623">
        <ele>279.719187</ele>
        <time>2020-10-26T13:16:36.766Z</time>
      </trkpt>
      <trkpt lat="44.13405" lon="5.05624">
        <ele>278.706794</ele>
        <time>2020-10-26T13:16:38.897Z</time>
      </trkpt>
      <trkpt lat="44.13401" lon="5.05623">
        <ele>278.197675</ele>
        <time>2020-10-26T13:16:40.039Z</time>
      </trkpt>
      <trkpt lat="44.13398" lon="5.0562">
        <ele>277.711275</ele>
        <time>2020-10-26T13:16:41.171Z</time>
      </trkpt>
      <trkpt lat="44.13397" lon="5.05617">
        <ele>277.402335</ele>
        <time>2020-10-26T13:16:41.863Z</time>
      </trkpt>
      <trkpt lat="44.13391" lon="5.05618">
        <ele>276.590858</ele>
        <time>2020-10-26T13:16:43.692Z</time>
      </trkpt>
      <trkpt lat="44.13391" lon="5.05632">
        <ele>275.22167</ele>
        <time>2020-10-26T13:16:45.412Z</time>
      </trkpt>
      <trkpt lat="44.13388" lon="5.05657">
        <ele>272.833195</ele>
        <time>2020-10-26T13:16:48.459Z</time>
      </trkpt>
      <trkpt lat="44.13377" lon="5.05677">
        <ele>270.552883</ele>
        <time>2020-10-26T13:16:51.354Z</time>
      </trkpt>
      <trkpt lat="44.13325" lon="5.05736">
        <ele>261.61955</ele>
        <time>2020-10-26T13:17:02.317Z</time>
      </trkpt>
      <trkpt lat="44.13305" lon="5.05746">
        <ele>258.709248</ele>
        <time>2020-10-26T13:17:05.892Z</time>
      </trkpt>
      <trkpt lat="44.13238" lon="5.05757">
        <ele>249.720577</ele>
        <time>2020-10-26T13:17:16.924Z</time>
      </trkpt>
      <trkpt lat="44.13209" lon="5.05797">
        <ele>244.367715</ele>
        <time>2020-10-26T13:17:23.758Z</time>
      </trkpt>
      <trkpt lat="44.13201" lon="5.05805">
        <ele>243.17822</ele>
        <time>2020-10-26T13:17:25.396Z</time>
      </trkpt>
      <trkpt lat="44.13196" lon="5.05806">
        <ele>242.617437</ele>
        <time>2020-10-26T13:17:26.156Z</time>
      </trkpt>
      <trkpt lat="44.13179" lon="5.05807">
        <ele>240.636932</ele>
        <time>2020-10-26T13:17:29.074Z</time>
      </trkpt>
      <trkpt lat="44.13119" lon="5.05753">
        <ele>232.180423</ele>
        <time>2020-10-26T13:17:41.038Z</time>
      </trkpt>
      <trkpt lat="44.13047" lon="5.05718">
        <ele>223.378036</ele>
        <time>2020-10-26T13:17:53.750Z</time>
      </trkpt>
      <trkpt lat="44.12995" lon="5.05718">
        <ele>218.187306</ele>
        <time>2020-10-26T13:18:02.766Z</time>
      </trkpt>
      <trkpt lat="44.12973" lon="5.05729">
        <ele>215.814127</ele>
        <time>2020-10-26T13:18:06.901Z</time>
      </trkpt>
      <trkpt lat="44.12959" lon="5.05727">
        <ele>214.469037</ele>
        <time>2020-10-26T13:18:09.215Z</time>
      </trkpt>
      <trkpt lat="44.12864" lon="5.05697">
        <ele>204.794681</ele>
        <time>2020-10-26T13:18:25.881Z</time>
      </trkpt>
      <trkpt lat="44.12822" lon="5.05673">
        <ele>200.81983</ele>
        <time>2020-10-26T13:18:33.584Z</time>
      </trkpt>
      <trkpt lat="44.12815" lon="5.05673">
        <ele>200.157317</ele>
        <time>2020-10-26T13:18:34.818Z</time>
      </trkpt>
      <trkpt lat="44.12803" lon="5.05673">
        <ele>199.100751</ele>
        <time>2020-10-26T13:18:36.853Z</time>
      </trkpt>
      <trkpt lat="44.12727" lon="5.05692">
        <ele>192.138677</ele>
        <time>2020-10-26T13:18:50.365Z</time>
      </trkpt>
      <trkpt lat="44.12632" lon="5.05696">
        <ele>185.860863</ele>
        <time>2020-10-26T13:19:07.398Z</time>
      </trkpt>
      <trkpt lat="44.12622" lon="5.05695">
        <ele>185.266779</ele>
        <time>2020-10-26T13:19:09.220Z</time>
      </trkpt>
      <trkpt lat="44.12618" lon="5.0568">
        <ele>184.571732</ele>
        <time>2020-10-26T13:19:11.542Z</time>
      </trkpt>
      <trkpt lat="44.12612" lon="5.05649">
        <ele>183.215232</ele>
        <time>2020-10-26T13:19:15.976Z</time>
      </trkpt>
      <trkpt lat="44.12603" lon="5.05638">
        <ele>182.517837</ele>
        <time>2020-10-26T13:19:18.315Z</time>
      </trkpt>
      <trkpt lat="44.12525" lon="5.05605">
        <ele>178.015266</ele>
        <time>2020-10-26T13:19:33.745Z</time>
      </trkpt>
      <trkpt lat="44.12461" lon="5.05551">
        <ele>174.328099</ele>
        <time>2020-10-26T13:19:47.990Z</time>
      </trkpt>
      <trkpt lat="44.12449" lon="5.05524">
        <ele>173.168025</ele>
        <time>2020-10-26T13:19:52.505Z</time>
      </trkpt>
      <trkpt lat="44.12424" lon="5.05468">
        <ele>170.835889</ele>
        <time>2020-10-26T13:20:01.597Z</time>
      </trkpt>
      <trkpt lat="44.12396" lon="5.05407">
        <ele>168.400936</ele>
        <time>2020-10-26T13:20:11.305Z</time>
      </trkpt>
      <trkpt lat="44.12339" lon="5.05252">
        <ele>162.588456</ele>
        <time>2020-10-26T13:20:35.392Z</time>
      </trkpt>
      <trkpt lat="44.12334" lon="5.05241">
        <ele>162.151514</ele>
        <time>2020-10-26T13:20:37.204Z</time>
      </trkpt>
      <trkpt lat="44.12324" lon="5.05243">
        <ele>161.839786</ele>
        <time>2020-10-26T13:20:39.311Z</time>
      </trkpt>
      <trkpt lat="44.12281" lon="5.05299">
        <ele>159.991785</ele>
        <time>2020-10-26T13:20:51.274Z</time>
      </trkpt>
      <trkpt lat="44.12265" lon="5.05312">
        <ele>159.41683</ele>
        <time>2020-10-26T13:20:55.184Z</time>
      </trkpt>
      <trkpt lat="44.1223" lon="5.05331">
        <ele>158.262423</ele>
        <time>2020-10-26T13:21:02.778Z</time>
      </trkpt>
      <trkpt lat="44.12229" lon="5.05315">
        <ele>157.912558</ele>
        <time>2020-10-26T13:21:05.080Z</time>
      </trkpt>
      <trkpt lat="44.12225" lon="5.05216">
        <ele>156.330182</ele>
        <time>2020-10-26T13:21:20.619Z</time>
      </trkpt>
      <trkpt lat="44.1223" lon="5.05101">
        <ele>155.602886</ele>
        <time>2020-10-26T13:21:40.939Z</time>
      </trkpt>
      <trkpt lat="44.12233" lon="5.05072">
        <ele>155.416946</ele>
        <time>2020-10-26T13:21:46.360Z</time>
      </trkpt>
      <trkpt lat="44.1223" lon="5.05101">
        <ele>155.231005</ele>
        <time>2020-10-26T13:21:52.062Z</time>
      </trkpt>
      <trkpt lat="44.12225" lon="5.05216">
        <ele>154.867702</ele>
        <time>2020-10-26T13:22:13.866Z</time>
      </trkpt>
      <trkpt lat="44.12229" lon="5.05315">
        <ele>154.697223</ele>
        <time>2020-10-26T13:22:32.841Z</time>
      </trkpt>
      <trkpt lat="44.1223" lon="5.05331">
        <ele>154.670434</ele>
        <time>2020-10-26T13:22:35.950Z</time>
      </trkpt>
      <trkpt lat="44.1221" lon="5.05343">
        <ele>154.618202</ele>
        <time>2020-10-26T13:22:41.135Z</time>
      </trkpt>
      <trkpt lat="44.12171" lon="5.05376">
        <ele>153.951977</ele>
        <time>2020-10-26T13:22:52.178Z</time>
      </trkpt>
      <trkpt lat="44.12119" lon="5.05395">
        <ele>152.707277</ele>
        <time>2020-10-26T13:23:04.060Z</time>
      </trkpt>
      <trkpt lat="44.12075" lon="5.05441">
        <ele>151.435286</ele>
        <time>2020-10-26T13:23:15.685Z</time>
      </trkpt>
      <trkpt lat="44.12042" lon="5.05444">
        <ele>150.68123</ele>
        <time>2020-10-26T13:23:22.637Z</time>
      </trkpt>
      <trkpt lat="44.11974" lon="5.05471">
        <ele>148.069859</ele>
        <time>2020-10-26T13:23:36.741Z</time>
      </trkpt>
      <trkpt lat="44.11929" lon="5.05481">
        <ele>146.259574</ele>
        <time>2020-10-26T13:23:45.881Z</time>
      </trkpt>
      <trkpt lat="44.11893" lon="5.05508">
        <ele>144.652827</ele>
        <time>2020-10-26T13:23:53.896Z</time>
      </trkpt>
      <trkpt lat="44.11889" lon="5.05511">
        <ele>144.473063</ele>
        <time>2020-10-26T13:23:54.721Z</time>
      </trkpt>
      <trkpt lat="44.11881" lon="5.05507">
        <ele>144.118044</ele>
        <time>2020-10-26T13:23:56.298Z</time>
      </trkpt>
      <trkpt lat="44.11871" lon="5.05489">
        <ele>143.480215</ele>
        <time>2020-10-26T13:23:59.586Z</time>
      </trkpt>
      <trkpt lat="44.11869" lon="5.05472">
        <ele>142.928209</ele>
        <time>2020-10-26T13:24:01.863Z</time>
      </trkpt>
      <trkpt lat="44.11865" lon="5.05476">
        <ele>142.695097</ele>
        <time>2020-10-26T13:24:02.699Z</time>
      </trkpt>
      <trkpt lat="44.1185" lon="5.0549">
        <ele>141.850489</ele>
        <time>2020-10-26T13:24:06.220Z</time>
      </trkpt>
      <trkpt lat="44.11835" lon="5.05542">
        <ele>139.997905</ele>
        <time>2020-10-26T13:24:13.467Z</time>
      </trkpt>
      <trkpt lat="44.11782" lon="5.05584">
        <ele>137.181668</ele>
        <time>2020-10-26T13:24:24.324Z</time>
      </trkpt>
      <trkpt lat="44.11763" lon="5.05589">
        <ele>136.277874</ele>
        <time>2020-10-26T13:24:28.091Z</time>
      </trkpt>
      <trkpt lat="44.11725" lon="5.05595">
        <ele>134.588194</ele>
        <time>2020-10-26T13:24:35.215Z</time>
      </trkpt>
      <trkpt lat="44.11718" lon="5.05596">
        <ele>134.299807</ele>
        <time>2020-10-26T13:24:36.591Z</time>
      </trkpt>
      <trkpt lat="44.11649" lon="5.05604">
        <ele>131.704704</ele>
        <time>2020-10-26T13:24:49.716Z</time>
      </trkpt>
      <trkpt lat="44.11634" lon="5.05607">
        <ele>131.126251</ele>
        <time>2020-10-26T13:24:52.631Z</time>
      </trkpt>
      <trkpt lat="44.11611" lon="5.05617">
        <ele>130.21939</ele>
        <time>2020-10-26T13:24:57.206Z</time>
      </trkpt>
      <trkpt lat="44.11595" lon="5.05631">
        <ele>129.524059</ele>
        <time>2020-10-26T13:25:00.878Z</time>
      </trkpt>
      <trkpt lat="44.11584" lon="5.05608">
        <ele>128.784823</ele>
        <time>2020-10-26T13:25:04.622Z</time>
      </trkpt>
      <trkpt lat="44.11579" lon="5.0559">
        <ele>128.264905</ele>
        <time>2020-10-26T13:25:07.249Z</time>
      </trkpt>
      <trkpt lat="44.11583" lon="5.0555">
        <ele>127.294943</ele>
        <time>2020-10-26T13:25:13.009Z</time>
      </trkpt>
      <trkpt lat="44.11574" lon="5.05525">
        <ele>126.626023</ele>
        <time>2020-10-26T13:25:16.808Z</time>
      </trkpt>
      <trkpt lat="44.1156" lon="5.05502">
        <ele>125.908534</ele>
        <time>2020-10-26T13:25:20.854Z</time>
      </trkpt>
      <trkpt lat="44.1154" lon="5.05483">
        <ele>125.118428</ele>
        <time>2020-10-26T13:25:25.497Z</time>
      </trkpt>
      <trkpt lat="44.11518" lon="5.05465">
        <ele>124.244609</ele>
        <time>2020-10-26T13:25:30.477Z</time>
      </trkpt>
      <trkpt lat="44.115" lon="5.05465">
        <ele>123.654597</ele>
        <time>2020-10-26T13:25:34.070Z</time>
      </trkpt>
      <trkpt lat="44.11498" lon="5.05466">
        <ele>123.58145</ele>
        <time>2020-10-26T13:25:34.414Z</time>
      </trkpt>
      <trkpt lat="44.11481" lon="5.05477">
        <ele>122.968147</ele>
        <time>2020-10-26T13:25:38.237Z</time>
      </trkpt>
      <trkpt lat="44.11456" lon="5.05498">
        <ele>122.063276</ele>
        <time>2020-10-26T13:25:44.186Z</time>
      </trkpt>
      <trkpt lat="44.11408" lon="5.05544">
        <ele>120.678437</ele>
        <time>2020-10-26T13:25:56.332Z</time>
      </trkpt>
      <trkpt lat="44.11395" lon="5.05557">
        <ele>120.308493</ele>
        <time>2020-10-26T13:25:59.259Z</time>
      </trkpt>
      <trkpt lat="44.11392" lon="5.05555">
        <ele>120.212841</ele>
        <time>2020-10-26T13:26:00.112Z</time>
      </trkpt>
      <trkpt lat="44.11389" lon="5.05555">
        <ele>120.151249</ele>
        <time>2020-10-26T13:26:00.638Z</time>
      </trkpt>
      <trkpt lat="44.11385" lon="5.05585">
        <ele>119.62017</ele>
        <time>2020-10-26T13:26:05.283Z</time>
      </trkpt>
      <trkpt lat="44.11372" lon="5.05634">
        <ele>118.730434</ele>
        <time>2020-10-26T13:26:13.206Z</time>
      </trkpt>
      <trkpt lat="44.11357" lon="5.05683">
        <ele>117.806001</ele>
        <time>2020-10-26T13:26:21.520Z</time>
      </trkpt>
      <trkpt lat="44.11355" lon="5.05682">
        <ele>117.729259</ele>
        <time>2020-10-26T13:26:22.042Z</time>
      </trkpt>
      <trkpt lat="44.11221" lon="5.05622">
        <ele>114.164069</ele>
        <time>2020-10-26T13:26:52.425Z</time>
      </trkpt>
      <trkpt lat="44.11143" lon="5.05675">
        <ele>111.813548</ele>
        <time>2020-10-26T13:27:09.993Z</time>
      </trkpt>
      <trkpt lat="44.11071" lon="5.05697">
        <ele>109.735906</ele>
        <time>2020-10-26T13:27:25.327Z</time>
      </trkpt>
      <trkpt lat="44.11024" lon="5.05728">
        <ele>108.305767</ele>
        <time>2020-10-26T13:27:36.365Z</time>
      </trkpt>
      <trkpt lat="44.10969" lon="5.05755">
        <ele>107.562364</ele>
        <time>2020-10-26T13:27:49.436Z</time>
      </trkpt>
      <trkpt lat="44.10861" lon="5.05775">
        <ele>106.177431</ele>
        <time>2020-10-26T13:28:16.458Z</time>
      </trkpt>
      <trkpt lat="44.10852" lon="5.05776">
        <ele>106.058943</ele>
        <time>2020-10-26T13:28:18.630Z</time>
      </trkpt>
      <trkpt lat="44.10841" lon="5.05807">
        <ele>105.640163</ele>
        <time>2020-10-26T13:28:24.694Z</time>
      </trkpt>
      <trkpt lat="44.10818" lon="5.05844">
        <ele>105.019579</ele>
        <time>2020-10-26T13:28:33.404Z</time>
      </trkpt>
      <trkpt lat="44.10816" lon="5.05846">
        <ele>104.981465</ele>
        <time>2020-10-26T13:28:34.065Z</time>
      </trkpt>
      <trkpt lat="44.10811" lon="5.05849">
        <ele>104.89166</ele>
        <time>2020-10-26T13:28:35.190Z</time>
      </trkpt>
      <trkpt lat="44.10777" lon="5.05868">
        <ele>104.254665</ele>
        <time>2020-10-26T13:28:43.618Z</time>
      </trkpt>
      <trkpt lat="44.10776" lon="5.05872">
        <ele>104.203996</ele>
        <time>2020-10-26T13:28:44.244Z</time>
      </trkpt>
      <trkpt lat="44.10701" lon="5.05889">
        <ele>102.853639</ele>
        <time>2020-10-26T13:29:00.031Z</time>
      </trkpt>
      <trkpt lat="44.10671" lon="5.05896">
        <ele>101.849032</ele>
        <time>2020-10-26T13:29:06.149Z</time>
      </trkpt>
      <trkpt lat="44.10655" lon="5.059">
        <ele>101.30952</ele>
        <time>2020-10-26T13:29:09.307Z</time>
      </trkpt>
      <trkpt lat="44.10644" lon="5.05837">
        <ele>99.769058</ele>
        <time>2020-10-26T13:29:18.721Z</time>
      </trkpt>
      <trkpt lat="44.10633" lon="5.05709">
        <ele>96.759092</ele>
        <time>2020-10-26T13:29:37.495Z</time>
      </trkpt>
      <trkpt lat="44.10592" lon="5.05634">
        <ele>94.759314</ele>
        <time>2020-10-26T13:29:51.347Z</time>
      </trkpt>
      <trkpt lat="44.1059" lon="5.0561">
        <ele>94.257246</ele>
        <time>2020-10-26T13:29:54.868Z</time>
      </trkpt>
      <trkpt lat="44.10605" lon="5.05521">
        <ele>92.315784</ele>
        <time>2020-10-26T13:30:08.968Z</time>
      </trkpt>
      <trkpt lat="44.10599" lon="5.05519">
        <ele>92.130839</ele>
        <time>2020-10-26T13:30:10.189Z</time>
      </trkpt>
      <trkpt lat="44.10568" lon="5.05516">
        <ele>91.283096</ele>
        <time>2020-10-26T13:30:17.008Z</time>
      </trkpt>
      <trkpt lat="44.10479" lon="5.0547">
        <ele>88.912821</ele>
        <time>2020-10-26T13:30:36.928Z</time>
      </trkpt>
      <trkpt lat="44.10396" lon="5.05412">
        <ele>86.639624</ele>
        <time>2020-10-26T13:30:57.127Z</time>
      </trkpt>
      <trkpt lat="44.1039" lon="5.05408">
        <ele>86.489794</ele>
        <time>2020-10-26T13:30:58.474Z</time>
      </trkpt>
      <trkpt lat="44.10385" lon="5.05404">
        <ele>86.344098</ele>
        <time>2020-10-26T13:30:59.886Z</time>
      </trkpt>
      <trkpt lat="44.10382" lon="5.05403">
        <ele>86.285615</ele>
        <time>2020-10-26T13:31:00.375Z</time>
      </trkpt>
      <trkpt lat="44.10335" lon="5.05374">
        <ele>85.107766</ele>
        <time>2020-10-26T13:31:11.486Z</time>
      </trkpt>
      <trkpt lat="44.10283" lon="5.05317">
        <ele>83.622164</ele>
        <time>2020-10-26T13:31:25.633Z</time>
      </trkpt>
      <trkpt lat="44.1028" lon="5.05313">
        <ele>83.520636</ele>
        <time>2020-10-26T13:31:26.544Z</time>
      </trkpt>
      <trkpt lat="44.10285" lon="5.05283">
        <ele>83.061615</ele>
        <time>2020-10-26T13:31:31.202Z</time>
      </trkpt>
      <trkpt lat="44.10291" lon="5.05237">
        <ele>82.656029</ele>
        <time>2020-10-26T13:31:39.020Z</time>
      </trkpt>
      <trkpt lat="44.10295" lon="5.05193">
        <ele>82.277682</ele>
        <time>2020-10-26T13:31:46.088Z</time>
      </trkpt>
      <trkpt lat="44.10298" lon="5.05101">
        <ele>81.477415</ele>
        <time>2020-10-26T13:32:01.198Z</time>
      </trkpt>
      <trkpt lat="44.10296" lon="5.05047">
        <ele>81.017633</ele>
        <time>2020-10-26T13:32:10.147Z</time>
      </trkpt>
      <trkpt lat="44.10295" lon="5.05037">
        <ele>80.941409</ele>
        <time>2020-10-26T13:32:12.067Z</time>
      </trkpt>
      <trkpt lat="44.1029" lon="5.0501">
        <ele>80.831303</ele>
        <time>2020-10-26T13:32:16.735Z</time>
      </trkpt>
      <trkpt lat="44.10276" lon="5.04943">
        <ele>80.553028</ele>
        <time>2020-10-26T13:32:29.154Z</time>
      </trkpt>
      <trkpt lat="44.10258" lon="5.04844">
        <ele>80.144615</ele>
        <time>2020-10-26T13:32:47.068Z</time>
      </trkpt>
      <trkpt lat="44.10257" lon="5.04835">
        <ele>80.107386</ele>
        <time>2020-10-26T13:32:48.639Z</time>
      </trkpt>
      <trkpt lat="44.1024" lon="5.04842">
        <ele>80.008453</ele>
        <time>2020-10-26T13:32:53.061Z</time>
      </trkpt>
      <trkpt lat="44.10129" lon="5.04871">
        <ele>79.475734</ele>
        <time>2020-10-26T13:33:21.318Z</time>
      </trkpt>
      <trkpt lat="44.09998" lon="5.04908">
        <ele>79.01937</ele>
        <time>2020-10-26T13:33:55.544Z</time>
      </trkpt>
      <trkpt lat="44.09988" lon="5.04909">
        <ele>79.001307</ele>
        <time>2020-10-26T13:33:58.187Z</time>
      </trkpt>
      <trkpt lat="44.09982" lon="5.04909">
        <ele>78.99116</ele>
        <time>2020-10-26T13:33:59.692Z</time>
      </trkpt>
      <trkpt lat="44.09942" lon="5.04902">
        <ele>78.921068</ele>
        <time>2020-10-26T13:34:09.941Z</time>
      </trkpt>
      <trkpt lat="44.09781" lon="5.04923">
        <ele>79.094577</ele>
        <time>2020-10-26T13:34:52.473Z</time>
      </trkpt>
      <trkpt lat="44.09776" lon="5.04926">
        <ele>79.112352</ele>
        <time>2020-10-26T13:34:54.003Z</time>
      </trkpt>
      <trkpt lat="44.09775" lon="5.04924">
        <ele>79.11817</ele>
        <time>2020-10-26T13:34:54.528Z</time>
      </trkpt>
      <trkpt lat="44.09773" lon="5.04921">
        <ele>79.125315</ele>
        <time>2020-10-26T13:34:55.160Z</time>
      </trkpt>
      <trkpt lat="44.09769" lon="5.04923">
        <ele>79.137891</ele>
        <time>2020-10-26T13:34:56.312Z</time>
      </trkpt>
      <trkpt lat="44.09683" lon="5.04932">
        <ele>79.488752</ele>
        <time>2020-10-26T13:35:19.747Z</time>
      </trkpt>
      <trkpt lat="44.09641" lon="5.04942">
        <ele>79.856422</ele>
        <time>2020-10-26T13:35:31.491Z</time>
      </trkpt>
      <trkpt lat="44.09599" lon="5.04951">
        <ele>80.214101</ele>
        <time>2020-10-26T13:35:42.995Z</time>
      </trkpt>
      <trkpt lat="44.09525" lon="5.04977">
        <ele>80.865174</ele>
        <time>2020-10-26T13:36:04.017Z</time>
      </trkpt>
      <trkpt lat="44.09502" lon="5.04977">
        <ele>81.063237</ele>
        <time>2020-10-26T13:36:10.359Z</time>
      </trkpt>
      <trkpt lat="44.09477" lon="5.04976">
        <ele>81.275285</ele>
        <time>2020-10-26T13:36:17.103Z</time>
      </trkpt>
      <trkpt lat="44.09447" lon="5.04978">
        <ele>81.529622</ele>
        <time>2020-10-26T13:36:25.220Z</time>
      </trkpt>
      <trkpt lat="44.09395" lon="5.04989">
        <ele>81.984645</ele>
        <time>2020-10-26T13:36:39.685Z</time>
      </trkpt>
      <trkpt lat="44.0938" lon="5.04989">
        <ele>82.116797</ele>
        <time>2020-10-26T13:36:43.915Z</time>
      </trkpt>
      <trkpt lat="44.09001" lon="5.05038">
        <ele>85.681437</ele>
        <time>2020-10-26T13:38:27.891Z</time>
      </trkpt>
      <trkpt lat="44.08972" lon="5.05043">
        <ele>86.041288</ele>
        <time>2020-10-26T13:38:36.240Z</time>
      </trkpt>
      <trkpt lat="44.08953" lon="5.05047">
        <ele>86.311576</ele>
        <time>2020-10-26T13:38:41.628Z</time>
      </trkpt>
      <trkpt lat="44.08938" lon="5.05046">
        <ele>86.523379</ele>
        <time>2020-10-26T13:38:45.896Z</time>
      </trkpt>
      <trkpt lat="44.08862" lon="5.05025">
        <ele>87.611253</ele>
        <time>2020-10-26T13:39:07.511Z</time>
      </trkpt>
      <trkpt lat="44.08843" lon="5.05019">
        <ele>87.891244</ele>
        <time>2020-10-26T13:39:13.071Z</time>
      </trkpt>
      <trkpt lat="44.08831" lon="5.05013">
        <ele>88.065236</ele>
        <time>2020-10-26T13:39:16.517Z</time>
      </trkpt>
      <trkpt lat="44.08829" lon="5.05011">
        <ele>88.097615</ele>
        <time>2020-10-26T13:39:17.121Z</time>
      </trkpt>
      <trkpt lat="44.08823" lon="5.0501">
        <ele>88.175843</ele>
        <time>2020-10-26T13:39:18.623Z</time>
      </trkpt>
      <trkpt lat="44.08808" lon="5.05012">
        <ele>88.381122</ele>
        <time>2020-10-26T13:39:22.960Z</time>
      </trkpt>
      <trkpt lat="44.08774" lon="5.05047">
        <ele>88.413574</ele>
        <time>2020-10-26T13:39:34.300Z</time>
      </trkpt>
      <trkpt lat="44.08724" lon="5.05046">
        <ele>88.451915</ele>
        <time>2020-10-26T13:39:47.394Z</time>
      </trkpt>
      <trkpt lat="44.08693" lon="5.05052">
        <ele>88.476185</ele>
        <time>2020-10-26T13:39:55.669Z</time>
      </trkpt>
      <trkpt lat="44.08688" lon="5.05056">
        <ele>88.480927</ele>
        <time>2020-10-26T13:39:57.166Z</time>
      </trkpt>
      <trkpt lat="44.08674" lon="5.05058">
        <ele>88.49103</ele>
        <time>2020-10-26T13:40:00.721Z</time>
      </trkpt>
      <trkpt lat="44.08657" lon="5.05062">
        <ele>88.504523</ele>
        <time>2020-10-26T13:40:05.475Z</time>
      </trkpt>
      <trkpt lat="44.08611" lon="5.05093">
        <ele>88.494395</ele>
        <time>2020-10-26T13:40:19.362Z</time>
      </trkpt>
      <trkpt lat="44.08497" lon="5.05059">
        <ele>88.410248</ele>
        <time>2020-10-26T13:40:51.606Z</time>
      </trkpt>
      <trkpt lat="44.08494" lon="5.05042">
        <ele>88.400875</ele>
        <time>2020-10-26T13:40:55.286Z</time>
      </trkpt>
      <trkpt lat="44.0851" lon="5.0499">
        <ele>88.413296</ele>
        <time>2020-10-26T13:41:07.007Z</time>
      </trkpt>
      <trkpt lat="44.08511" lon="5.0496">
        <ele>88.436432</ele>
        <time>2020-10-26T13:41:13.087Z</time>
      </trkpt>
      <trkpt lat="44.08502" lon="5.04927">
        <ele>88.463693</ele>
        <time>2020-10-26T13:41:20.144Z</time>
      </trkpt>
      <trkpt lat="44.08495" lon="5.04918">
        <ele>88.474123</ele>
        <time>2020-10-26T13:41:22.871Z</time>
      </trkpt>
      <trkpt lat="44.08472" lon="5.04913">
        <ele>88.499245</ele>
        <time>2020-10-26T13:41:29.335Z</time>
      </trkpt>
      <trkpt lat="44.08457" lon="5.04914">
        <ele>88.514964</ele>
        <time>2020-10-26T13:41:33.437Z</time>
      </trkpt>
      <trkpt lat="44.08421" lon="5.04926">
        <ele>88.55538</ele>
        <time>2020-10-26T13:41:43.858Z</time>
      </trkpt>
      <trkpt lat="44.08355" lon="5.04941">
        <ele>88.736355</ele>
        <time>2020-10-26T13:42:02.280Z</time>
      </trkpt>
      <trkpt lat="44.08331" lon="5.04926">
        <ele>88.836242</ele>
        <time>2020-10-26T13:42:09.684Z</time>
      </trkpt>
      <trkpt lat="44.08324" lon="5.04916">
        <ele>88.873095</ele>
        <time>2020-10-26T13:42:12.447Z</time>
      </trkpt>
      <trkpt lat="44.08277" lon="5.04762">
        <ele>89.533319</ele>
        <time>2020-10-26T13:42:46.987Z</time>
      </trkpt>
      <trkpt lat="44.0828" lon="5.04747">
        <ele>89.697742</ele>
        <time>2020-10-26T13:42:50.147Z</time>
      </trkpt>
      <trkpt lat="44.08282" lon="5.04736">
        <ele>89.82504</ele>
        <time>2020-10-26T13:42:52.593Z</time>
      </trkpt>
      <trkpt lat="44.08352" lon="5.04554">
        <ele>92.039829</ele>
        <time>2020-10-26T13:43:36.355Z</time>
      </trkpt>
      <trkpt lat="44.08385" lon="5.04421">
        <ele>92.97268</ele>
        <time>2020-10-26T13:44:05.984Z</time>
      </trkpt>
      <trkpt lat="44.0839" lon="5.04397">
        <ele>93.13494</ele>
        <time>2020-10-26T13:44:11.136Z</time>
      </trkpt>
      <trkpt lat="44.08418" lon="5.04275">
        <ele>93.502406</ele>
        <time>2020-10-26T13:44:36.755Z</time>
      </trkpt>
      <trkpt lat="44.08434" lon="5.04226">
        <ele>93.364146</ele>
        <time>2020-10-26T13:44:47.315Z</time>
      </trkpt>
      <trkpt lat="44.08479" lon="5.04133">
        <ele>93.075766</ele>
        <time>2020-10-26T13:45:08.905Z</time>
      </trkpt>
      <trkpt lat="44.08495" lon="5.04099">
        <ele>92.971248</ele>
        <time>2020-10-26T13:45:16.921Z</time>
      </trkpt>
      <trkpt lat="44.08515" lon="5.04047">
        <ele>92.83188</ele>
        <time>2020-10-26T13:45:28.677Z</time>
      </trkpt>
      <trkpt lat="44.08535" lon="5.03992">
        <ele>92.689093</ele>
        <time>2020-10-26T13:45:40.765Z</time>
      </trkpt>
      <trkpt lat="44.08532" lon="5.03955">
        <ele>92.600053</ele>
        <time>2020-10-26T13:45:48.338Z</time>
      </trkpt>
      <trkpt lat="44.08394" lon="5.03787">
        <ele>92.098539</ele>
        <time>2020-10-26T13:46:38.477Z</time>
      </trkpt>
      <trkpt lat="44.08374" lon="5.03761">
        <ele>92.031288</ele>
        <time>2020-10-26T13:46:45.918Z</time>
      </trkpt>
      <trkpt lat="44.08371" lon="5.03752">
        <ele>92.013802</ele>
        <time>2020-10-26T13:46:47.866Z</time>
      </trkpt>
      <trkpt lat="44.08371" lon="5.03667">
        <ele>91.912609</ele>
        <time>2020-10-26T13:47:05.056Z</time>
      </trkpt>
      <trkpt lat="44.08364" lon="5.03623">
        <ele>91.874546</ele>
        <time>2020-10-26T13:47:13.931Z</time>
      </trkpt>
      <trkpt lat="44.08354" lon="5.03594">
        <ele>91.847717</ele>
        <time>2020-10-26T13:47:20.132Z</time>
      </trkpt>
      <trkpt lat="44.08343" lon="5.03585">
        <ele>91.83238</ele>
        <time>2020-10-26T13:47:23.727Z</time>
      </trkpt>
      <trkpt lat="44.08332" lon="5.03584">
        <ele>91.819964</ele>
        <time>2020-10-26T13:47:26.334Z</time>
      </trkpt>
      <trkpt lat="44.08283" lon="5.03622">
        <ele>91.753961</ele>
        <time>2020-10-26T13:47:41.996Z</time>
      </trkpt>
      <trkpt lat="44.08276" lon="5.03621">
        <ele>91.748534</ele>
        <time>2020-10-26T13:47:44.126Z</time>
      </trkpt>
      <trkpt lat="44.08303" lon="5.03594">
        <ele>91.803245</ele>
        <time>2020-10-26T13:47:52.995Z</time>
      </trkpt>
      <trkpt lat="44.08332" lon="5.0357">
        <ele>91.857915</ele>
        <time>2020-10-26T13:48:01.731Z</time>
      </trkpt>
      <trkpt lat="44.0835" lon="5.03557">
        <ele>91.889319</ele>
        <time>2020-10-26T13:48:06.437Z</time>
      </trkpt>
      <trkpt lat="44.08327" lon="5.03562">
        <ele>91.926278</ele>
        <time>2020-10-26T13:48:14.053Z</time>
      </trkpt>
      <trkpt lat="44.08299" lon="5.0358">
        <ele>91.976255</ele>
        <time>2020-10-26T13:48:24.218Z</time>
      </trkpt>
      <trkpt lat="44.08267" lon="5.03613">
        <ele>92.025774</ele>
        <time>2020-10-26T13:48:37.299Z</time>
      </trkpt>
      <trkpt lat="44.08264" lon="5.03599">
        <ele>91.971852</ele>
        <time>2020-10-26T13:48:41.485Z</time>
      </trkpt>
      <trkpt lat="44.08266" lon="5.03569">
        <ele>91.865343</ele>
        <time>2020-10-26T13:48:50.179Z</time>
      </trkpt>
      <trkpt lat="44.08295" lon="5.03435">
        <ele>91.364564</ele>
        <time>2020-10-26T13:49:31.920Z</time>
      </trkpt>
      <trkpt lat="44.08298" lon="5.03421">
        <ele>91.312014</ele>
        <time>2020-10-26T13:49:36.162Z</time>
      </trkpt>
      <trkpt lat="44.08303" lon="5.034">
        <ele>91.233501</ele>
        <time>2020-10-26T13:49:42.216Z</time>
      </trkpt>
      <trkpt lat="44.08345" lon="5.033">
        <ele>90.412201</ele>
        <time>2020-10-26T13:50:15.136Z</time>
      </trkpt>
      <trkpt lat="44.08347" lon="5.03295">
        <ele>90.364457</ele>
        <time>2020-10-26T13:50:16.673Z</time>
      </trkpt>
      <trkpt lat="44.08373" lon="5.03255">
        <ele>89.921031</ele>
        <time>2020-10-26T13:50:32.153Z</time>
      </trkpt>
      <trkpt lat="44.08457" lon="5.03125">
        <ele>88.969332</ele>
        <time>2020-10-26T13:51:23.656Z</time>
      </trkpt>
      <trkpt lat="44.08551" lon="5.02964">
        <ele>88.708584</ele>
        <time>2020-10-26T13:52:25.178Z</time>
      </trkpt>
      <trkpt lat="44.0856" lon="5.02916">
        <ele>88.812014</ele>
        <time>2020-10-26T13:52:39.851Z</time>
      </trkpt>
      <trkpt lat="44.08555" lon="5.02893">
        <ele>88.861911</ele>
        <time>2020-10-26T13:52:46.953Z</time>
      </trkpt>
      <trkpt lat="44.08537" lon="5.02882">
        <ele>88.919218</ele>
        <time>2020-10-26T13:52:55.053Z</time>
      </trkpt>
      <trkpt lat="44.08509" lon="5.02885">
        <ele>88.998497</ele>
        <time>2020-10-26T13:53:06.288Z</time>
      </trkpt>
      <trkpt lat="44.08489" lon="5.02876">
        <ele>89.059761</ele>
        <time>2020-10-26T13:53:14.998Z</time>
      </trkpt>
      <trkpt lat="44.0848" lon="5.02859">
        <ele>89.103258</ele>
        <time>2020-10-26T13:53:21.154Z</time>
      </trkpt>
      <trkpt lat="44.08478" lon="5.02861">
        <ele>89.108235</ele>
        <time>2020-10-26T13:53:21.632Z</time>
      </trkpt>
      <trkpt lat="44.08474" lon="5.02866">
        <ele>89.125034</ele>
        <time>2020-10-26T13:53:23.186Z</time>
      </trkpt>
      <trkpt lat="44.08467" lon="5.02872">
        <ele>89.148199</ele>
        <time>2020-10-26T13:53:25.326Z</time>
      </trkpt>
      <trkpt lat="44.08458" lon="5.02873">
        <ele>89.162815</ele>
        <time>2020-10-26T13:53:27.712Z</time>
      </trkpt>
      <trkpt lat="44.0845" lon="5.0288">
        <ele>89.164612</ele>
        <time>2020-10-26T13:53:30.205Z</time>
      </trkpt>
      <trkpt lat="44.08448" lon="5.02862">
        <ele>89.16719</ele>
        <time>2020-10-26T13:53:34.568Z</time>
      </trkpt>
      <trkpt lat="44.08447" lon="5.02845">
        <ele>89.169532</ele>
        <time>2020-10-26T13:53:38.522Z</time>
      </trkpt>
      <trkpt lat="44.08439" lon="5.02797">
        <ele>89.176445</ele>
        <time>2020-10-26T13:53:50.207Z</time>
      </trkpt>
      <trkpt lat="44.08435" lon="5.02766">
        <ele>89.180843</ele>
        <time>2020-10-26T13:53:57.641Z</time>
      </trkpt>
      <trkpt lat="44.08439" lon="5.02797">
        <ele>89.185242</ele>
        <time>2020-10-26T13:54:05.013Z</time>
      </trkpt>
      <trkpt lat="44.08447" lon="5.02845">
        <ele>89.192154</ele>
        <time>2020-10-26T13:54:16.562Z</time>
      </trkpt>
      <trkpt lat="44.08448" lon="5.02862">
        <ele>89.194496</ele>
        <time>2020-10-26T13:54:20.485Z</time>
      </trkpt>
      <trkpt lat="44.0845" lon="5.0288">
        <ele>89.197075</ele>
        <time>2020-10-26T13:54:24.758Z</time>
      </trkpt>
      <trkpt lat="44.08458" lon="5.02873">
        <ele>89.172066</ele>
        <time>2020-10-26T13:54:27.056Z</time>
      </trkpt>
      <trkpt lat="44.08467" lon="5.02872">
        <ele>89.14548</ele>
        <time>2020-10-26T13:54:29.369Z</time>
      </trkpt>
      <trkpt lat="44.08474" lon="5.02866">
        <ele>89.121686</ele>
        <time>2020-10-26T13:54:31.427Z</time>
      </trkpt>
      <trkpt lat="44.08478" lon="5.02861">
        <ele>89.104431</ele>
        <time>2020-10-26T13:54:32.914Z</time>
      </trkpt>
      <trkpt lat="44.0848" lon="5.02859">
        <ele>89.099319</ele>
        <time>2020-10-26T13:54:33.368Z</time>
      </trkpt>
      <trkpt lat="44.08489" lon="5.02876">
        <ele>89.054641</ele>
        <time>2020-10-26T13:54:39.639Z</time>
      </trkpt>
      <trkpt lat="44.08509" lon="5.02885">
        <ele>88.991714</ele>
        <time>2020-10-26T13:54:48.415Z</time>
      </trkpt>
      <trkpt lat="44.08537" lon="5.02882">
        <ele>88.910282</ele>
        <time>2020-10-26T13:54:59.779Z</time>
      </trkpt>
      <trkpt lat="44.08555" lon="5.02893">
        <ele>88.851419</ele>
        <time>2020-10-26T13:55:08.021Z</time>
      </trkpt>
      <trkpt lat="44.0856" lon="5.02916">
        <ele>88.800168</ele>
        <time>2020-10-26T13:55:15.175Z</time>
      </trkpt>
      <trkpt lat="44.08551" lon="5.02964">
        <ele>88.69393</ele>
        <time>2020-10-26T13:55:30.072Z</time>
      </trkpt>
      <trkpt lat="44.08457" lon="5.03125">
        <ele>88.614586</ele>
        <time>2020-10-26T13:56:31.556Z</time>
      </trkpt>
      <trkpt lat="44.08373" lon="5.03255">
        <ele>88.596879</ele>
        <time>2020-10-26T13:57:23.370Z</time>
      </trkpt>
      <trkpt lat="44.08457" lon="5.03125">
        <ele>88.591799</ele>
        <time>2020-10-26T13:58:15.287Z</time>
      </trkpt>
      <trkpt lat="44.08551" lon="5.02964">
        <ele>88.584139</ele>
        <time>2020-10-26T13:59:16.796Z</time>
      </trkpt>
      <trkpt lat="44.0856" lon="5.02916">
        <ele>88.578971</ele>
        <time>2020-10-26T13:59:31.516Z</time>
      </trkpt>
      <trkpt lat="44.08555" lon="5.02893">
        <ele>88.576447</ele>
        <time>2020-10-26T13:59:38.628Z</time>
      </trkpt>
      <trkpt lat="44.08537" lon="5.02882">
        <ele>88.573548</ele>
        <time>2020-10-26T13:59:46.767Z</time>
      </trkpt>
      <trkpt lat="44.08509" lon="5.02885">
        <ele>88.569537</ele>
        <time>2020-10-26T13:59:58.007Z</time>
      </trkpt>
      <trkpt lat="44.08489" lon="5.02876">
        <ele>88.566438</ele>
        <time>2020-10-26T14:00:06.790Z</time>
      </trkpt>
      <trkpt lat="44.0848" lon="5.02859">
        <ele>88.564238</ele>
        <time>2020-10-26T14:00:12.979Z</time>
      </trkpt>
      <trkpt lat="44.08471" lon="5.02847">
        <ele>88.562444</ele>
        <time>2020-10-26T14:00:18.096Z</time>
      </trkpt>
      <trkpt lat="44.08459" lon="5.02826">
        <ele>88.559591</ele>
        <time>2020-10-26T14:00:26.158Z</time>
      </trkpt>
      <trkpt lat="44.0845" lon="5.02796">
        <ele>88.457445</ele>
        <time>2020-10-26T14:00:35.765Z</time>
      </trkpt>
      <trkpt lat="44.08455" lon="5.02725">
        <ele>87.987001</ele>
        <time>2020-10-26T14:00:57.267Z</time>
      </trkpt>
      <trkpt lat="44.0844" lon="5.02647">
        <ele>87.460296</ele>
        <time>2020-10-26T14:01:20.685Z</time>
      </trkpt>
      <trkpt lat="44.08414" lon="5.02609">
        <ele>87.116356</ele>
        <time>2020-10-26T14:01:35.714Z</time>
      </trkpt>
      <trkpt lat="44.08391" lon="5.02602">
        <ele>86.900918</ele>
        <time>2020-10-26T14:01:45.128Z</time>
      </trkpt>
      <trkpt lat="44.08382" lon="5.02599">
        <ele>86.818906</ele>
        <time>2020-10-26T14:01:48.578Z</time>
      </trkpt>
      <trkpt lat="44.08368" lon="5.02603">
        <ele>86.691265</ele>
        <time>2020-10-26T14:01:54.069Z</time>
      </trkpt>
      <trkpt lat="44.08345" lon="5.0263">
        <ele>86.41143</ele>
        <time>2020-10-26T14:02:06.025Z</time>
      </trkpt>
      <trkpt lat="44.08325" lon="5.02667">
        <ele>86.10911</ele>
        <time>2020-10-26T14:02:19.200Z</time>
      </trkpt>
      <trkpt lat="44.08326" lon="5.02789">
        <ele>85.296718</ele>
        <time>2020-10-26T14:02:55.801Z</time>
      </trkpt>
      <trkpt lat="44.08316" lon="5.02827">
        <ele>85.203551</ele>
        <time>2020-10-26T14:03:07.811Z</time>
      </trkpt>
      <trkpt lat="44.08276" lon="5.02904">
        <ele>85.042759</ele>
        <time>2020-10-26T14:03:36.220Z</time>
      </trkpt>
      <trkpt lat="44.08215" lon="5.02955">
        <ele>84.876396</ele>
        <time>2020-10-26T14:04:05.506Z</time>
      </trkpt>
      <trkpt lat="44.08202" lon="5.02973">
        <ele>84.842128</ele>
        <time>2020-10-26T14:04:13.141Z</time>
      </trkpt>
      <trkpt lat="44.08189" lon="5.02993">
        <ele>84.850656</ele>
        <time>2020-10-26T14:04:20.987Z</time>
      </trkpt>
      <trkpt lat="44.08145" lon="5.03065">
        <ele>84.881235</ele>
        <time>2020-10-26T14:04:49.068Z</time>
      </trkpt>
      <trkpt lat="44.08068" lon="5.03115">
        <ele>84.919236</ele>
        <time>2020-10-26T14:05:23.954Z</time>
      </trkpt>
      <trkpt lat="44.07974" lon="5.0321">
        <ele>84.774806</ele>
        <time>2020-10-26T14:06:11.979Z</time>
      </trkpt>
      <trkpt lat="44.07932" lon="5.03267">
        <ele>84.698399</ele>
        <time>2020-10-26T14:06:36.078Z</time>
      </trkpt>
      <trkpt lat="44.07911" lon="5.03287">
        <ele>84.57571</ele>
        <time>2020-10-26T14:06:46.646Z</time>
      </trkpt>
      <trkpt lat="44.07889" lon="5.03295">
        <ele>84.412704</ele>
        <time>2020-10-26T14:06:56.196Z</time>
      </trkpt>
      <trkpt lat="44.07874" lon="5.0329">
        <ele>84.300455</ele>
        <time>2020-10-26T14:07:02.688Z</time>
      </trkpt>
      <trkpt lat="44.07829" lon="5.03243">
        <ele>83.906705</ele>
        <time>2020-10-26T14:07:25.028Z</time>
      </trkpt>
      <trkpt lat="44.07818" lon="5.03243">
        <ele>83.827263</ele>
        <time>2020-10-26T14:07:29.660Z</time>
      </trkpt>
      <trkpt lat="44.078" lon="5.03253">
        <ele>83.687854</ele>
        <time>2020-10-26T14:07:37.705Z</time>
      </trkpt>
      <trkpt lat="44.0776" lon="5.03315">
        <ele>83.475268</ele>
        <time>2020-10-26T14:08:02.510Z</time>
      </trkpt>
      <trkpt lat="44.07748" lon="5.03332">
        <ele>83.531243</ele>
        <time>2020-10-26T14:08:09.817Z</time>
      </trkpt>
      <trkpt lat="44.07735" lon="5.03362">
        <ele>83.608983</ele>
        <time>2020-10-26T14:08:19.923Z</time>
      </trkpt>
      <trkpt lat="44.07701" lon="5.03472">
        <ele>83.884744</ele>
        <time>2020-10-26T14:08:55.530Z</time>
      </trkpt>
      <trkpt lat="44.077" lon="5.03505">
        <ele>83.958767</ele>
        <time>2020-10-26T14:09:04.947Z</time>
      </trkpt>
      <trkpt lat="44.07711" lon="5.03526">
        <ele>84.219379</ele>
        <time>2020-10-26T14:09:12.377Z</time>
      </trkpt>
      <trkpt lat="44.07775" lon="5.03589">
        <ele>85.872404</ele>
        <time>2020-10-26T14:09:43.712Z</time>
      </trkpt>
      <trkpt lat="44.07791" lon="5.03595">
        <ele>86.209854</ele>
        <time>2020-10-26T14:09:50.122Z</time>
      </trkpt>
      <trkpt lat="44.0783" lon="5.03591">
        <ele>87.023899</ele>
        <time>2020-10-26T14:10:05.536Z</time>
      </trkpt>
      <trkpt lat="44.0783" lon="5.03591">
        <ele>87.025994</ele>
        <time>2020-10-26T14:10:05.630Z</time>
      </trkpt>
      <trkpt lat="44.07855" lon="5.03601">
        <ele>87.57647</ele>
        <time>2020-10-26T14:10:16.038Z</time>
      </trkpt>
      <trkpt lat="44.07867" lon="5.03639">
        <ele>88.246144</ele>
        <time>2020-10-26T14:10:27.893Z</time>
      </trkpt>
      <trkpt lat="44.0787" lon="5.03671">
        <ele>88.76917</ele>
        <time>2020-10-26T14:10:36.940Z</time>
      </trkpt>
      <trkpt lat="44.07853" lon="5.03732">
        <ele>89.866289</ele>
        <time>2020-10-26T14:10:55.874Z</time>
      </trkpt>
      <trkpt lat="44.07836" lon="5.03756">
        <ele>90.414285</ele>
        <time>2020-10-26T14:11:05.323Z</time>
      </trkpt>
      <trkpt lat="44.07811" lon="5.03762">
        <ele>91.006016</ele>
        <time>2020-10-26T14:11:15.504Z</time>
      </trkpt>
      <trkpt lat="44.07649" lon="5.03657">
        <ele>93.91799</ele>
        <time>2020-10-26T14:12:26.782Z</time>
      </trkpt>
      <trkpt lat="44.07622" lon="5.03652">
        <ele>94.310064</ele>
        <time>2020-10-26T14:12:37.751Z</time>
      </trkpt>
      <trkpt lat="44.07585" lon="5.03672">
        <ele>94.188689</ele>
        <time>2020-10-26T14:12:53.842Z</time>
      </trkpt>
      <trkpt lat="44.07576" lon="5.03685">
        <ele>94.053929</ele>
        <time>2020-10-26T14:12:58.851Z</time>
      </trkpt>
      <trkpt lat="44.07552" lon="5.03746">
        <ele>93.505948</ele>
        <time>2020-10-26T14:13:19.726Z</time>
      </trkpt>
      <trkpt lat="44.07538" lon="5.03756">
        <ele>93.332293</ele>
        <time>2020-10-26T14:13:25.918Z</time>
      </trkpt>
      <trkpt lat="44.07533" lon="5.03757">
        <ele>93.277592</ele>
        <time>2020-10-26T14:13:27.922Z</time>
      </trkpt>
      <trkpt lat="44.07532" lon="5.0373">
        <ele>93.065373</ele>
        <time>2020-10-26T14:13:31.892Z</time>
      </trkpt>
      <trkpt lat="44.07536" lon="5.03663">
        <ele>92.540919</ele>
        <time>2020-10-26T14:13:42.394Z</time>
      </trkpt>
      <trkpt lat="44.07545" lon="5.0364">
        <ele>91.811186</ele>
        <time>2020-10-26T14:13:46.286Z</time>
      </trkpt>
      <trkpt lat="44.07563" lon="5.03618">
        <ele>90.810004</ele>
        <time>2020-10-26T14:13:51.430Z</time>
      </trkpt>
      <trkpt lat="44.07567" lon="5.0361">
        <ele>90.507281</ele>
        <time>2020-10-26T14:13:52.894Z</time>
      </trkpt>
      <trkpt lat="44.07571" lon="5.03597">
        <ele>90.092177</ele>
        <time>2020-10-26T14:13:54.736Z</time>
      </trkpt>
      <trkpt lat="44.07613" lon="5.03396">
        <ele>83.546673</ele>
        <time>2020-10-26T14:14:23.829Z</time>
      </trkpt>
      <trkpt lat="44.07623" lon="5.03276">
        <ele>79.055356</ele>
        <time>2020-10-26T14:14:40.150Z</time>
      </trkpt>
      <trkpt lat="44.0763" lon="5.0321">
        <ele>76.551804</ele>
        <time>2020-10-26T14:14:49.183Z</time>
      </trkpt>
      <trkpt lat="44.07637" lon="5.03168">
        <ele>75.164939</ele>
        <time>2020-10-26T14:14:54.994Z</time>
      </trkpt>
      <trkpt lat="44.07657" lon="5.03092">
        <ele>73.03139</ele>
        <time>2020-10-26T14:15:06.034Z</time>
      </trkpt>
      <trkpt lat="44.07689" lon="5.03022">
        <ele>70.826462</ele>
        <time>2020-10-26T14:15:18.018Z</time>
      </trkpt>
      <trkpt lat="44.07708" lon="5.02968">
        <ele>69.230648</ele>
        <time>2020-10-26T14:15:27.657Z</time>
      </trkpt>
      <trkpt lat="44.07709" lon="5.0296">
        <ele>69.058796</ele>
        <time>2020-10-26T14:15:28.969Z</time>
      </trkpt>
      <trkpt lat="44.07707" lon="5.0296">
        <ele>69.030491</ele>
        <time>2020-10-26T14:15:29.656Z</time>
      </trkpt>
      <trkpt lat="44.07668" lon="5.02979">
        <ele>68.573416</ele>
        <time>2020-10-26T14:15:39.410Z</time>
      </trkpt>
      <trkpt lat="44.07624" lon="5.03001">
        <ele>68.051802</ele>
        <time>2020-10-26T14:15:50.693Z</time>
      </trkpt>
      <trkpt lat="44.07592" lon="5.03017">
        <ele>67.683829</ele>
        <time>2020-10-26T14:15:58.945Z</time>
      </trkpt>
      <trkpt lat="44.07591" lon="5.03011">
        <ele>67.633541</ele>
        <time>2020-10-26T14:16:00.828Z</time>
      </trkpt>
      <trkpt lat="44.0759" lon="5.03009">
        <ele>67.619276</ele>
        <time>2020-10-26T14:16:01.352Z</time>
      </trkpt>
      <trkpt lat="44.0759" lon="5.03008">
        <ele>67.606518</ele>
        <time>2020-10-26T14:16:01.825Z</time>
      </trkpt>
      <trkpt lat="44.07589" lon="5.03004">
        <ele>67.57087</ele>
        <time>2020-10-26T14:16:03.156Z</time>
      </trkpt>
      <trkpt lat="44.07703" lon="5.02941">
        <ele>66.161224</ele>
        <time>2020-10-26T14:16:31.961Z</time>
      </trkpt>
      <trkpt lat="44.07711" lon="5.02937">
        <ele>66.065547</ele>
        <time>2020-10-26T14:16:33.796Z</time>
      </trkpt>
      <trkpt lat="44.07762" lon="5.02909">
        <ele>65.412779</ele>
        <time>2020-10-26T14:16:45.810Z</time>
      </trkpt>
      <trkpt lat="44.0789" lon="5.02832">
        <ele>63.97359</ele>
        <time>2020-10-26T14:17:17.375Z</time>
      </trkpt>
      <trkpt lat="44.08015" lon="5.02742">
        <ele>62.901989</ele>
        <time>2020-10-26T14:17:50.894Z</time>
      </trkpt>
      <trkpt lat="44.08163" lon="5.02602">
        <ele>61.853306</ele>
        <time>2020-10-26T14:18:34.662Z</time>
      </trkpt>
      <trkpt lat="44.08311" lon="5.02425">
        <ele>59.717947</ele>
        <time>2020-10-26T14:19:20.043Z</time>
      </trkpt>
      <trkpt lat="44.08314" lon="5.0242">
        <ele>59.636323</ele>
        <time>2020-10-26T14:19:21.147Z</time>
      </trkpt>
      <trkpt lat="44.08318" lon="5.02414">
        <ele>59.54845</ele>
        <time>2020-10-26T14:19:22.163Z</time>
      </trkpt>
      <trkpt lat="44.08409" lon="5.02283">
        <ele>57.578475</ele>
        <time>2020-10-26T14:19:49.935Z</time>
      </trkpt>
      <trkpt lat="44.08496" lon="5.02133">
        <ele>55.778689</ele>
        <time>2020-10-26T14:20:21.067Z</time>
      </trkpt>
      <trkpt lat="44.08518" lon="5.02092">
        <ele>55.70866</ele>
        <time>2020-10-26T14:20:30.291Z</time>
      </trkpt>
      <trkpt lat="44.08576" lon="5.01964">
        <ele>55.609479</ele>
        <time>2020-10-26T14:20:57.885Z</time>
      </trkpt>
      <trkpt lat="44.0862" lon="5.01857">
        <ele>55.394529</ele>
        <time>2020-10-26T14:21:20.585Z</time>
      </trkpt>
      <trkpt lat="44.08624" lon="5.01848">
        <ele>55.367627</ele>
        <time>2020-10-26T14:21:22.570Z</time>
      </trkpt>
      <trkpt lat="44.08629" lon="5.01838">
        <ele>55.337075</ele>
        <time>2020-10-26T14:21:24.570Z</time>
      </trkpt>
      <trkpt lat="44.08641" lon="5.01807">
        <ele>55.247437</ele>
        <time>2020-10-26T14:21:31.052Z</time>
      </trkpt>
      <trkpt lat="44.08663" lon="5.01739">
        <ele>55.058918</ele>
        <time>2020-10-26T14:21:43.778Z</time>
      </trkpt>
      <trkpt lat="44.08678" lon="5.01687">
        <ele>54.851281</ele>
        <time>2020-10-26T14:21:53.239Z</time>
      </trkpt>
      <trkpt lat="44.08682" lon="5.01674">
        <ele>54.713766</ele>
        <time>2020-10-26T14:21:55.749Z</time>
      </trkpt>
      <trkpt lat="44.08715" lon="5.01557">
        <ele>53.511488</ele>
        <time>2020-10-26T14:22:16.115Z</time>
      </trkpt>
      <trkpt lat="44.08755" lon="5.0138">
        <ele>51.557743</ele>
        <time>2020-10-26T14:22:45.294Z</time>
      </trkpt>
      <trkpt lat="44.08776" lon="5.01257">
        <ele>50.064967</ele>
        <time>2020-10-26T14:23:04.922Z</time>
      </trkpt>
      <trkpt lat="44.08784" lon="5.01195">
        <ele>49.447103</ele>
        <time>2020-10-26T14:23:14.690Z</time>
      </trkpt>
      <trkpt lat="44.08786" lon="5.0118">
        <ele>49.343082</ele>
        <time>2020-10-26T14:23:17.109Z</time>
      </trkpt>
      <trkpt lat="44.08792" lon="5.01128">
        <ele>48.984341</ele>
        <time>2020-10-26T14:23:25.671Z</time>
      </trkpt>
      <trkpt lat="44.08796" lon="5.01079">
        <ele>48.647283</ele>
        <time>2020-10-26T14:23:33.979Z</time>
      </trkpt>
      <trkpt lat="44.08805" lon="5.00957">
        <ele>47.868663</ele>
        <time>2020-10-26T14:23:55.179Z</time>
      </trkpt>
      <trkpt lat="44.08806" lon="5.00926">
        <ele>47.785599</ele>
        <time>2020-10-26T14:24:00.782Z</time>
      </trkpt>
      <trkpt lat="44.08808" lon="5.00752">
        <ele>47.321468</ele>
        <time>2020-10-26T14:24:32.042Z</time>
      </trkpt>
      <trkpt lat="44.08796" lon="5.00491">
        <ele>45.884105</ele>
        <time>2020-10-26T14:25:16.321Z</time>
      </trkpt>
      <trkpt lat="44.08778" lon="5.00176">
        <ele>43.791193</ele>
        <time>2020-10-26T14:26:08.124Z</time>
      </trkpt>
      <trkpt lat="44.08777" lon="5.00168">
        <ele>43.787536</ele>
        <time>2020-10-26T14:26:09.426Z</time>
      </trkpt>
      <trkpt lat="44.08748" lon="4.99662">
        <ele>43.291934</ele>
        <time>2020-10-26T14:27:43.572Z</time>
      </trkpt>
      <trkpt lat="44.08737" lon="4.99461">
        <ele>40.864361</ele>
        <time>2020-10-26T14:28:13.181Z</time>
      </trkpt>
      <trkpt lat="44.08737" lon="4.9945">
        <ele>40.72981</ele>
        <time>2020-10-26T14:28:14.795Z</time>
      </trkpt>
      <trkpt lat="44.08725" lon="4.99253">
        <ele>38.38951</ele>
        <time>2020-10-26T14:28:45.175Z</time>
      </trkpt>
      <trkpt lat="44.08716" lon="4.99086">
        <ele>37.795122</ele>
        <time>2020-10-26T14:29:14.915Z</time>
      </trkpt>
      <trkpt lat="44.08715" lon="4.99066">
        <ele>37.764028</ele>
        <time>2020-10-26T14:29:18.367Z</time>
      </trkpt>
      <trkpt lat="44.08713" lon="4.99039">
        <ele>37.719876</ele>
        <time>2020-10-26T14:29:23.285Z</time>
      </trkpt>
      <trkpt lat="44.08707" lon="4.98942">
        <ele>37.717827</ele>
        <time>2020-10-26T14:29:41.137Z</time>
      </trkpt>
      <trkpt lat="44.08703" lon="4.98873">
        <ele>37.958169</ele>
        <time>2020-10-26T14:29:54.097Z</time>
      </trkpt>
      <trkpt lat="44.08689" lon="4.9861">
        <ele>38.372103</ele>
        <time>2020-10-26T14:30:43.939Z</time>
      </trkpt>
      <trkpt lat="44.08687" lon="4.98579">
        <ele>38.341844</ele>
        <time>2020-10-26T14:30:49.374Z</time>
      </trkpt>
      <trkpt lat="44.08686" lon="4.98568">
        <ele>38.330472</ele>
        <time>2020-10-26T14:30:51.412Z</time>
      </trkpt>
      <trkpt lat="44.0868" lon="4.98458">
        <ele>38.072396</ele>
        <time>2020-10-26T14:31:10.262Z</time>
      </trkpt>
      <trkpt lat="44.08659" lon="4.98087">
        <ele>34.390083</ele>
        <time>2020-10-26T14:32:08.735Z</time>
      </trkpt>
      <trkpt lat="44.08658" lon="4.98063">
        <ele>34.17969</ele>
        <time>2020-10-26T14:32:12.777Z</time>
      </trkpt>
      <trkpt lat="44.08643" lon="4.97801">
        <ele>32.807872</ele>
        <time>2020-10-26T14:32:57.970Z</time>
      </trkpt>
      <trkpt lat="44.08641" lon="4.97766">
        <ele>32.686874</ele>
        <time>2020-10-26T14:33:04.265Z</time>
      </trkpt>
      <trkpt lat="44.08633" lon="4.9763">
        <ele>32.519391</ele>
        <time>2020-10-26T14:33:28.703Z</time>
      </trkpt>
      <trkpt lat="44.08632" lon="4.97609">
        <ele>32.514416</ele>
        <time>2020-10-26T14:33:32.518Z</time>
      </trkpt>
      <trkpt lat="44.0863" lon="4.97575">
        <ele>32.506354</ele>
        <time>2020-10-26T14:33:38.756Z</time>
      </trkpt>
      <trkpt lat="44.0863" lon="4.97533">
        <ele>32.49669</ele>
        <time>2020-10-26T14:33:46.227Z</time>
      </trkpt>
      <trkpt lat="44.0863" lon="4.97502">
        <ele>32.489296</ele>
        <time>2020-10-26T14:33:51.946Z</time>
      </trkpt>
      <trkpt lat="44.08633" lon="4.97446">
        <ele>32.561315</ele>
        <time>2020-10-26T14:34:02.201Z</time>
      </trkpt>
      <trkpt lat="44.0865" lon="4.97276">
        <ele>33.040725</ele>
        <time>2020-10-26T14:34:33.949Z</time>
      </trkpt>
      <trkpt lat="44.08676" lon="4.97167">
        <ele>33.955216</ele>
        <time>2020-10-26T14:34:55.738Z</time>
      </trkpt>
      <trkpt lat="44.08703" lon="4.97091">
        <ele>34.992026</ele>
        <time>2020-10-26T14:35:12.400Z</time>
      </trkpt>
      <trkpt lat="44.0871" lon="4.97073">
        <ele>35.229041</ele>
        <time>2020-10-26T14:35:16.373Z</time>
      </trkpt>
      <trkpt lat="44.08714" lon="4.97074">
        <ele>35.299376</ele>
        <time>2020-10-26T14:35:17.516Z</time>
      </trkpt>
      <trkpt lat="44.08739" lon="4.97082">
        <ele>35.723005</ele>
        <time>2020-10-26T14:35:24.436Z</time>
      </trkpt>
      <trkpt lat="44.0874" lon="4.97076">
        <ele>35.801017</ele>
        <time>2020-10-26T14:35:25.819Z</time>
      </trkpt>
      <trkpt lat="44.08758" lon="4.97059">
        <ele>36.165338</ele>
        <time>2020-10-26T14:35:31.824Z</time>
      </trkpt>
      <trkpt lat="44.08772" lon="4.97055">
        <ele>36.572844</ele>
        <time>2020-10-26T14:35:36.012Z</time>
      </trkpt>
      <trkpt lat="44.08873" lon="4.97035">
        <ele>39.717324</ele>
        <time>2020-10-26T14:36:05.335Z</time>
      </trkpt>
      <trkpt lat="44.08903" lon="4.97026">
        <ele>40.663258</ele>
        <time>2020-10-26T14:36:14.220Z</time>
      </trkpt>
      <trkpt lat="44.08921" lon="4.97021">
        <ele>41.212967</ele>
        <time>2020-10-26T14:36:19.514Z</time>
      </trkpt>
      <trkpt lat="44.08937" lon="4.97018">
        <ele>41.715627</ele>
        <time>2020-10-26T14:36:24.149Z</time>
      </trkpt>
      <trkpt lat="44.08947" lon="4.97018">
        <ele>42.029783</ele>
        <time>2020-10-26T14:36:27.277Z</time>
      </trkpt>
      <trkpt lat="44.09009" lon="4.97033">
        <ele>43.944593</ele>
        <time>2020-10-26T14:36:45.024Z</time>
      </trkpt>
      <trkpt lat="44.09016" lon="4.97033">
        <ele>44.158302</ele>
        <time>2020-10-26T14:36:47.095Z</time>
      </trkpt>
      <trkpt lat="44.0902" lon="4.97033">
        <ele>44.267928</ele>
        <time>2020-10-26T14:36:48.192Z</time>
      </trkpt>
      <trkpt lat="44.09108" lon="4.97029">
        <ele>46.964685</ele>
        <time>2020-10-26T14:37:13.262Z</time>
      </trkpt>
      <trkpt lat="44.09173" lon="4.97039">
        <ele>49.100834</ele>
        <time>2020-10-26T14:37:32.319Z</time>
      </trkpt>
      <trkpt lat="44.09199" lon="4.97043">
        <ele>49.971454</ele>
        <time>2020-10-26T14:37:39.999Z</time>
      </trkpt>
      <trkpt lat="44.09244" lon="4.97039">
        <ele>51.452799</ele>
        <time>2020-10-26T14:37:52.913Z</time>
      </trkpt>
      <trkpt lat="44.09272" lon="4.97036">
        <ele>52.38014</ele>
        <time>2020-10-26T14:38:01.064Z</time>
      </trkpt>
      <trkpt lat="44.09299" lon="4.97035">
        <ele>53.254339</ele>
        <time>2020-10-26T14:38:08.926Z</time>
      </trkpt>
      <trkpt lat="44.09335" lon="4.97036">
        <ele>54.21679</ele>
        <time>2020-10-26T14:38:19.403Z</time>
      </trkpt>
      <trkpt lat="44.09351" lon="4.97034">
        <ele>54.640729</ele>
        <time>2020-10-26T14:38:24.006Z</time>
      </trkpt>
      <trkpt lat="44.09389" lon="4.9702">
        <ele>55.687685</ele>
        <time>2020-10-26T14:38:35.180Z</time>
      </trkpt>
      <trkpt lat="44.09409" lon="4.97011">
        <ele>56.250074</ele>
        <time>2020-10-26T14:38:41.046Z</time>
      </trkpt>
      <trkpt lat="44.09427" lon="4.96998">
        <ele>56.791721</ele>
        <time>2020-10-26T14:38:46.668Z</time>
      </trkpt>
      <trkpt lat="44.09483" lon="4.96975">
        <ele>58.261221</ele>
        <time>2020-10-26T14:39:02.670Z</time>
      </trkpt>
      <trkpt lat="44.09542" lon="4.96966">
        <ele>59.457484</ele>
        <time>2020-10-26T14:39:18.814Z</time>
      </trkpt>
      <trkpt lat="44.09702" lon="4.9697">
        <ele>62.796718</ele>
        <time>2020-10-26T14:40:03.182Z</time>
      </trkpt>
      <trkpt lat="44.09727" lon="4.96967">
        <ele>63.34876</ele>
        <time>2020-10-26T14:40:10.146Z</time>
      </trkpt>
      <trkpt lat="44.0977" lon="4.96968">
        <ele>64.277389</ele>
        <time>2020-10-26T14:40:21.770Z</time>
      </trkpt>
      <trkpt lat="44.09809" lon="4.96979">
        <ele>65.16681</ele>
        <time>2020-10-26T14:40:33.105Z</time>
      </trkpt>
      <trkpt lat="44.09879" lon="4.97015">
        <ele>67.064844</ele>
        <time>2020-10-26T14:40:53.903Z</time>
      </trkpt>
      <trkpt lat="44.09902" lon="4.97022">
        <ele>67.688492</ele>
        <time>2020-10-26T14:41:00.531Z</time>
      </trkpt>
      <trkpt lat="44.09907" lon="4.97023">
        <ele>67.838138</ele>
        <time>2020-10-26T14:41:02.122Z</time>
      </trkpt>
      <trkpt lat="44.09936" lon="4.97028">
        <ele>68.607089</ele>
        <time>2020-10-26T14:41:10.268Z</time>
      </trkpt>
      <trkpt lat="44.10021" lon="4.97033">
        <ele>70.821189</ele>
        <time>2020-10-26T14:41:34.411Z</time>
      </trkpt>
      <trkpt lat="44.10049" lon="4.97027">
        <ele>71.49606</ele>
        <time>2020-10-26T14:41:42.530Z</time>
      </trkpt>
      <trkpt lat="44.10112" lon="4.9702">
        <ele>72.973465</ele>
        <time>2020-10-26T14:41:59.991Z</time>
      </trkpt>
      <trkpt lat="44.10156" lon="4.97016">
        <ele>74.014813</ele>
        <time>2020-10-26T14:42:12.214Z</time>
      </trkpt>
      <trkpt lat="44.10215" lon="4.97022">
        <ele>75.029867</ele>
        <time>2020-10-26T14:42:28.398Z</time>
      </trkpt>
      <trkpt lat="44.10283" lon="4.97036">
        <ele>75.878137</ele>
        <time>2020-10-26T14:42:46.788Z</time>
      </trkpt>
      <trkpt lat="44.10545" lon="4.97088">
        <ele>78.649712</ele>
        <time>2020-10-26T14:43:57.086Z</time>
      </trkpt>
      <trkpt lat="44.10695" lon="4.97109">
        <ele>80.364035</ele>
        <time>2020-10-26T14:44:37.380Z</time>
      </trkpt>
      <trkpt lat="44.1074" lon="4.97121">
        <ele>80.897893</ele>
        <time>2020-10-26T14:44:49.782Z</time>
      </trkpt>
      <trkpt lat="44.10761" lon="4.97124">
        <ele>81.144801</ele>
        <time>2020-10-26T14:44:55.404Z</time>
      </trkpt>
      <trkpt lat="44.10785" lon="4.97126">
        <ele>81.433419</ele>
        <time>2020-10-26T14:45:01.972Z</time>
      </trkpt>
      <trkpt lat="44.10838" lon="4.97127">
        <ele>82.053817</ele>
        <time>2020-10-26T14:45:16.079Z</time>
      </trkpt>
      <trkpt lat="44.10996" lon="4.97116">
        <ele>83.507548</ele>
        <time>2020-10-26T14:45:58.148Z</time>
      </trkpt>
      <trkpt lat="44.11214" lon="4.97021">
        <ele>85.026468</ele>
        <time>2020-10-26T14:46:57.752Z</time>
      </trkpt>
      <trkpt lat="44.11292" lon="4.97008">
        <ele>85.746836</ele>
        <time>2020-10-26T14:47:18.640Z</time>
      </trkpt>
      <trkpt lat="44.11341" lon="4.97006">
        <ele>86.285289</ele>
        <time>2020-10-26T14:47:31.661Z</time>
      </trkpt>
      <trkpt lat="44.11438" lon="4.97003">
        <ele>87.359451</ele>
        <time>2020-10-26T14:47:57.605Z</time>
      </trkpt>
      <trkpt lat="44.11526" lon="4.97">
        <ele>88.391711</ele>
        <time>2020-10-26T14:48:21.286Z</time>
      </trkpt>
      <trkpt lat="44.12117" lon="4.9698">
        <ele>94.587193</ele>
        <time>2020-10-26T14:50:58.888Z</time>
      </trkpt>
      <trkpt lat="44.1243" lon="4.9697">
        <ele>97.710639</ele>
        <time>2020-10-26T14:52:22.043Z</time>
      </trkpt>
      <trkpt lat="44.12511" lon="4.96966">
        <ele>98.543475</ele>
        <time>2020-10-26T14:52:43.655Z</time>
      </trkpt>
      <trkpt lat="44.12584" lon="4.96966">
        <ele>99.463036</ele>
        <time>2020-10-26T14:53:03.164Z</time>
      </trkpt>
      <trkpt lat="44.12588" lon="4.96966">
        <ele>99.510707</ele>
        <time>2020-10-26T14:53:04.233Z</time>
      </trkpt>
      <trkpt lat="44.12591" lon="4.96966">
        <ele>99.55336</ele>
        <time>2020-10-26T14:53:05.149Z</time>
      </trkpt>
      <trkpt lat="44.12603" lon="4.96965">
        <ele>99.69391</ele>
        <time>2020-10-26T14:53:08.148Z</time>
      </trkpt>
      <trkpt lat="44.1269" lon="4.96962">
        <ele>100.839603</ele>
        <time>2020-10-26T14:53:31.798Z</time>
      </trkpt>
      <trkpt lat="44.12815" lon="4.96957">
        <ele>103.103884</ele>
        <time>2020-10-26T14:54:06.105Z</time>
      </trkpt>
      <trkpt lat="44.1293" lon="4.96943">
        <ele>104.872496</ele>
        <time>2020-10-26T14:54:37.553Z</time>
      </trkpt>
      <trkpt lat="44.12946" lon="4.96941">
        <ele>105.093286</ele>
        <time>2020-10-26T14:54:41.970Z</time>
      </trkpt>
      <trkpt lat="44.13128" lon="4.96916">
        <ele>106.747972</ele>
        <time>2020-10-26T14:55:30.501Z</time>
      </trkpt>
      <trkpt lat="44.13195" lon="4.96907">
        <ele>107.027381</ele>
        <time>2020-10-26T14:55:48.058Z</time>
      </trkpt>
      <trkpt lat="44.13355" lon="4.96873">
        <ele>104.834124</ele>
        <time>2020-10-26T14:56:25.921Z</time>
      </trkpt>
      <trkpt lat="44.13365" lon="4.96869">
        <ele>104.646495</ele>
        <time>2020-10-26T14:56:27.971Z</time>
      </trkpt>
      <trkpt lat="44.13368" lon="4.96885">
        <ele>104.436051</ele>
        <time>2020-10-26T14:56:32.084Z</time>
      </trkpt>
      <trkpt lat="44.13372" lon="4.96899">
        <ele>104.261453</ele>
        <time>2020-10-26T14:56:36.184Z</time>
      </trkpt>
      <trkpt lat="44.13382" lon="4.96903">
        <ele>104.062362</ele>
        <time>2020-10-26T14:56:39.831Z</time>
      </trkpt>
      <trkpt lat="44.13445" lon="4.96871">
        <ele>100.876476</ele>
        <time>2020-10-26T14:57:02.342Z</time>
      </trkpt>
      <trkpt lat="44.13449" lon="4.96875">
        <ele>100.623544</ele>
        <time>2020-10-26T14:57:04.051Z</time>
      </trkpt>
      <trkpt lat="44.13455" lon="4.96871">
        <ele>100.347955</ele>
        <time>2020-10-26T14:57:05.691Z</time>
      </trkpt>
      <trkpt lat="44.13461" lon="4.96875">
        <ele>100.022869</ele>
        <time>2020-10-26T14:57:08.003Z</time>
      </trkpt>
      <trkpt lat="44.13481" lon="4.9705">
        <ele>94.680666</ele>
        <time>2020-10-26T14:57:50.297Z</time>
      </trkpt>
      <trkpt lat="44.13482" lon="4.97092">
        <ele>93.908175</ele>
        <time>2020-10-26T14:58:00.555Z</time>
      </trkpt>
      <trkpt lat="44.13481" lon="4.97095">
        <ele>93.845608</ele>
        <time>2020-10-26T14:58:01.233Z</time>
      </trkpt>
      <trkpt lat="44.13476" lon="4.97117">
        <ele>93.410926</ele>
        <time>2020-10-26T14:58:07.895Z</time>
      </trkpt>
      <trkpt lat="44.13437" lon="4.97181">
        <ele>91.836992</ele>
        <time>2020-10-26T14:58:30.987Z</time>
      </trkpt>
      <trkpt lat="44.13439" lon="4.97184">
        <ele>91.74089</ele>
        <time>2020-10-26T14:58:32.508Z</time>
      </trkpt>
      <trkpt lat="44.13443" lon="4.97188">
        <ele>91.614602</ele>
        <time>2020-10-26T14:58:34.506Z</time>
      </trkpt>
      <trkpt lat="44.13447" lon="4.972">
        <ele>91.363656</ele>
        <time>2020-10-26T14:58:38.489Z</time>
      </trkpt>
      <trkpt lat="44.13449" lon="4.97248">
        <ele>90.774027</ele>
        <time>2020-10-26T14:58:52.698Z</time>
      </trkpt>
      <trkpt lat="44.13471" lon="4.97341">
        <ele>90.318842</ele>
        <time>2020-10-26T14:59:21.849Z</time>
      </trkpt>
      <trkpt lat="44.13434" lon="4.97424">
        <ele>89.866596</ele>
        <time>2020-10-26T14:59:50.859Z</time>
      </trkpt>
      <trkpt lat="44.13429" lon="4.97468">
        <ele>89.756827</ele>
        <time>2020-10-26T15:00:03.977Z</time>
      </trkpt>
      <trkpt lat="44.13444" lon="4.97527">
        <ele>89.983334</ele>
        <time>2020-10-26T15:00:22.356Z</time>
      </trkpt>
      <trkpt lat="44.13474" lon="4.97577">
        <ele>90.216387</ele>
        <time>2020-10-26T15:00:41.379Z</time>
      </trkpt>
      <trkpt lat="44.13493" lon="4.97676">
        <ele>90.584133</ele>
        <time>2020-10-26T15:01:10.771Z</time>
      </trkpt>
      <trkpt lat="44.13516" lon="4.97764">
        <ele>93.473903</ele>
        <time>2020-10-26T15:01:37.737Z</time>
      </trkpt>
      <trkpt lat="44.13516" lon="4.97775">
        <ele>93.834434</ele>
        <time>2020-10-26T15:01:40.877Z</time>
      </trkpt>
      <trkpt lat="44.13523" lon="4.97775">
        <ele>94.154986</ele>
        <time>2020-10-26T15:01:43.841Z</time>
      </trkpt>
      <trkpt lat="44.13566" lon="4.97806">
        <ele>96.387313</ele>
        <time>2020-10-26T15:01:58.860Z</time>
      </trkpt>
      <trkpt lat="44.1366" lon="4.97952">
        <ele>104.045162</ele>
        <time>2020-10-26T15:02:48.405Z</time>
      </trkpt>
      <trkpt lat="44.1368" lon="4.97987">
        <ele>105.996912</ele>
        <time>2020-10-26T15:02:59.475Z</time>
      </trkpt>
      <trkpt lat="44.1368" lon="4.97987">
        <ele>105.996912</ele>
        <time>2020-10-26T15:02:59.595Z</time>
      </trkpt>
      <trkpt lat="44.13683" lon="4.97992">
        <ele>106.22393</ele>
        <time>2020-10-26T15:03:00.960Z</time>
      </trkpt>
      <trkpt lat="44.13705" lon="4.98029">
        <ele>108.304212</ele>
        <time>2020-10-26T15:03:12.773Z</time>
      </trkpt>
      <trkpt lat="44.1371" lon="4.98037">
        <ele>108.790013</ele>
        <time>2020-10-26T15:03:15.802Z</time>
      </trkpt>
      <trkpt lat="44.13742" lon="4.98089">
        <ele>110.792061</ele>
        <time>2020-10-26T15:03:31.018Z</time>
      </trkpt>
      <trkpt lat="44.13756" lon="4.98102">
        <ele>111.324612</ele>
        <time>2020-10-26T15:03:36.331Z</time>
      </trkpt>
      <trkpt lat="44.13774" lon="4.98115">
        <ele>111.974269</ele>
        <time>2020-10-26T15:03:42.284Z</time>
      </trkpt>
      <trkpt lat="44.13779" lon="4.98127">
        <ele>112.295866</ele>
        <time>2020-10-26T15:03:45.209Z</time>
      </trkpt>
      <trkpt lat="44.13778" lon="4.98165">
        <ele>113.170205</ele>
        <time>2020-10-26T15:03:53.309Z</time>
      </trkpt>
      <trkpt lat="44.13779" lon="4.98167">
        <ele>113.222696</ele>
        <time>2020-10-26T15:03:54.039Z</time>
      </trkpt>
      <trkpt lat="44.13775" lon="4.9818">
        <ele>113.542344</ele>
        <time>2020-10-26T15:03:56.768Z</time>
      </trkpt>
      <trkpt lat="44.1377" lon="4.98207">
        <ele>114.200951</ele>
        <time>2020-10-26T15:04:02.746Z</time>
      </trkpt>
      <trkpt lat="44.13769" lon="4.98224">
        <ele>114.580778</ele>
        <time>2020-10-26T15:04:06.113Z</time>
      </trkpt>
      <trkpt lat="44.13769" lon="4.98234">
        <ele>114.825401</ele>
        <time>2020-10-26T15:04:08.239Z</time>
      </trkpt>
      <trkpt lat="44.1377" lon="4.98243">
        <ele>115.024024</ele>
        <time>2020-10-26T15:04:09.947Z</time>
      </trkpt>
      <trkpt lat="44.13772" lon="4.98252">
        <ele>115.246999</ele>
        <time>2020-10-26T15:04:11.878Z</time>
      </trkpt>
      <trkpt lat="44.13783" lon="4.98289">
        <ele>115.775223</ele>
        <time>2020-10-26T15:04:19.852Z</time>
      </trkpt>
      <trkpt lat="44.13786" lon="4.98297">
        <ele>115.863945</ele>
        <time>2020-10-26T15:04:21.669Z</time>
      </trkpt>
      <trkpt lat="44.13792" lon="4.98309">
        <ele>116.006182</ele>
        <time>2020-10-26T15:04:24.633Z</time>
      </trkpt>
      <trkpt lat="44.13791" lon="4.9834">
        <ele>116.316723</ele>
        <time>2020-10-26T15:04:30.623Z</time>
      </trkpt>
      <trkpt lat="44.13787" lon="4.98416">
        <ele>117.056673</ele>
        <time>2020-10-26T15:04:45.457Z</time>
      </trkpt>
      <trkpt lat="44.13786" lon="4.98441">
        <ele>117.299469</ele>
        <time>2020-10-26T15:04:50.330Z</time>
      </trkpt>
      <trkpt lat="44.13786" lon="4.98448">
        <ele>117.367985</ele>
        <time>2020-10-26T15:04:51.739Z</time>
      </trkpt>
      <trkpt lat="44.13786" lon="4.98453">
        <ele>117.418916</ele>
        <time>2020-10-26T15:04:52.871Z</time>
      </trkpt>
      <trkpt lat="44.13785" lon="4.98472">
        <ele>117.609357</ele>
        <time>2020-10-26T15:04:56.781Z</time>
      </trkpt>
      <trkpt lat="44.13783" lon="4.98497">
        <ele>117.855692</ele>
        <time>2020-10-26T15:05:01.823Z</time>
      </trkpt>
      <trkpt lat="44.13783" lon="4.98514">
        <ele>118.056117</ele>
        <time>2020-10-26T15:05:05.229Z</time>
      </trkpt>
      <trkpt lat="44.13783" lon="4.98522">
        <ele>118.194275</ele>
        <time>2020-10-26T15:05:07.047Z</time>
      </trkpt>
      <trkpt lat="44.13794" lon="4.98517">
        <ele>118.42994</ele>
        <time>2020-10-26T15:05:10.016Z</time>
      </trkpt>
      <trkpt lat="44.13828" lon="4.98504">
        <ele>119.20046</ele>
        <time>2020-10-26T15:05:20.120Z</time>
      </trkpt>
      <trkpt lat="44.13836" lon="4.98504">
        <ele>119.362871</ele>
        <time>2020-10-26T15:05:22.244Z</time>
      </trkpt>
      <trkpt lat="44.13835" lon="4.98514">
        <ele>119.522716</ele>
        <time>2020-10-26T15:05:24.554Z</time>
      </trkpt>
      <trkpt lat="44.13834" lon="4.98611">
        <ele>121.03506</ele>
        <time>2020-10-26T15:05:44.420Z</time>
      </trkpt>
      <trkpt lat="44.13832" lon="4.98686">
        <ele>122.257659</ele>
        <time>2020-10-26T15:05:59.382Z</time>
      </trkpt>
      <trkpt lat="44.13832" lon="4.98689">
        <ele>122.315005</ele>
        <time>2020-10-26T15:06:00.016Z</time>
      </trkpt>
      <trkpt lat="44.13832" lon="4.98712">
        <ele>122.73278</ele>
        <time>2020-10-26T15:06:04.724Z</time>
      </trkpt>
      <trkpt lat="44.13831" lon="4.98742">
        <ele>123.292873</ele>
        <time>2020-10-26T15:06:10.873Z</time>
      </trkpt>
      <trkpt lat="44.13831" lon="4.98757">
        <ele>123.581208</ele>
        <time>2020-10-26T15:06:14.258Z</time>
      </trkpt>
      <trkpt lat="44.13832" lon="4.98767">
        <ele>123.767153</ele>
        <time>2020-10-26T15:06:16.261Z</time>
      </trkpt>
      <trkpt lat="44.13835" lon="4.98779">
        <ele>123.987189</ele>
        <time>2020-10-26T15:06:18.682Z</time>
      </trkpt>
      <trkpt lat="44.13846" lon="4.98799">
        <ele>124.464026</ele>
        <time>2020-10-26T15:06:24.131Z</time>
      </trkpt>
      <trkpt lat="44.13848" lon="4.98802">
        <ele>124.533099</ele>
        <time>2020-10-26T15:06:24.943Z</time>
      </trkpt>
      <trkpt lat="44.13867" lon="4.98834">
        <ele>125.309188</ele>
        <time>2020-10-26T15:06:33.838Z</time>
      </trkpt>
      <trkpt lat="44.13882" lon="4.9886">
        <ele>125.930345</ele>
        <time>2020-10-26T15:06:40.994Z</time>
      </trkpt>
      <trkpt lat="44.13894" lon="4.9888">
        <ele>126.396571</ele>
        <time>2020-10-26T15:06:46.260Z</time>
      </trkpt>
      <trkpt lat="44.13907" lon="4.98901">
        <ele>126.462936</ele>
        <time>2020-10-26T15:06:52.025Z</time>
      </trkpt>
      <trkpt lat="44.13909" lon="4.98908">
        <ele>126.462936</ele>
        <time>2020-10-26T15:06:53.487Z</time>
      </trkpt>
      <trkpt lat="44.13909" lon="4.98913">
        <ele>126.462936</ele>
        <time>2020-10-26T15:06:54.594Z</time>
      </trkpt>
      <trkpt lat="44.13909" lon="4.98919">
        <ele>126.462936</ele>
        <time>2020-10-26T15:06:55.912Z</time>
      </trkpt>
      <trkpt lat="44.13907" lon="4.9893">
        <ele>126.462936</ele>
        <time>2020-10-26T15:06:58.321Z</time>
      </trkpt>
      <trkpt lat="44.13891" lon="4.98962">
        <ele>126.462936</ele>
        <time>2020-10-26T15:07:06.643Z</time>
      </trkpt>
      <trkpt lat="44.13887" lon="4.98969">
        <ele>126.462936</ele>
        <time>2020-10-26T15:07:08.462Z</time>
      </trkpt>
      <trkpt lat="44.1388" lon="4.98983">
        <ele>126.462936</ele>
        <time>2020-10-26T15:07:12.107Z</time>
      </trkpt>
      <trkpt lat="44.13855" lon="4.9903">
        <ele>126.462936</ele>
        <time>2020-10-26T15:07:24.522Z</time>
      </trkpt>
      <trkpt lat="44.13854" lon="4.99036">
        <ele>126.462936</ele>
        <time>2020-10-26T15:07:25.805Z</time>
      </trkpt>
    </trkseg>
  </trk>
</gpx>